Observation data for Fritch on 01/18/2019      Previous  Date  Next       Current Mesonet Observations  Soil Data  Daily Summary Page  Observations in Plain Language
KFR1 180600Z 20017KT 10/M03 A2992 RMK A01 T00961027  RH  042%=      5-min Rain = 0
KFR1 180601Z 20016KT 10/M03 A2992 RMK A01 T00961027  RH  042%=      5-min Rain = 0
KFR1 180602Z 21017KT 10/M03 A2992 RMK A01 T00961027  RH  042%=      5-min Rain = 0
KFR1 180603Z 20016KT 10/M03 A2992 RMK A01 T00961027  RH  042%=      5-min Rain = 0
KFR1 180604Z 20017KT 10/M03 A2992 RMK A01 T00961027  RH  042%=      5-min Rain = 0
KFR1 180605Z 20016KT 10/M03 A2992 RMK A01 T00951027  RH  042%=      5-min Rain = 0
KFR1 180606Z 20017KT 10/M03 A2992 RMK A01 T00951027  RH  042%=      5-min Rain = 0
KFR1 180607Z 20015KT 10/M03 A2992 RMK A01 T00951027  RH  042%=      5-min Rain = 0
KFR1 180608Z 20017KT 10/M03 A2992 RMK A01 T00951027  RH  042%=      5-min Rain = 0
KFR1 180609Z 21017KT 10/M03 A2992 RMK A01 T00951027  RH  042%=      5-min Rain = 0
KFR1 180610Z 20016G21KT 09/M03 A2992 RMK A01 T00941028  RH  042%=      5-min Rain = 0
KFR1 180611Z 21019KT 09/M03 A2992 RMK A01 T00941027  RH  042%=      5-min Rain = 0
KFR1 180612Z 21017KT 10/M03 A2992 RMK A01 T00951027  RH  042%=      5-min Rain = 0
KFR1 180613Z 21018KT 09/M03 A2992 RMK A01 T00941027  RH  042%=      5-min Rain = 0
KFR1 180614Z 21018KT 09/M03 A2992 RMK A01 T00941027  RH  042%=      5-min Rain = 0
KFR1 180615Z 20017KT 09/M03 A2992 RMK A01 T00941027  RH  042%=      5-min Rain = 0
KFR1 180616Z 21016KT 09/M03 A2992 RMK A01 T00941027  RH  042%=      5-min Rain = 0
KFR1 180617Z 21017KT 09/M03 A2992 RMK A01 T00931028  RH  043%=      5-min Rain = 0
KFR1 180618Z 20016KT 09/M03 A2992 RMK A01 T00931028  RH  043%=      5-min Rain = 0
KFR1 180619Z 20017KT 09/M03 A2992 RMK A01 T00931027  RH  043%=      5-min Rain = 0
KFR1 180620Z 20016G21KT 09/M03 A2992 RMK A01 T00921028  RH  043%=      5-min Rain = 0
KFR1 180621Z 20016KT 09/M03 A2992 RMK A01 T00921028  RH  043%=      5-min Rain = 0
KFR1 180622Z 20017KT 09/M03 A2992 RMK A01 T00911028  RH  043%=      5-min Rain = 0
KFR1 180623Z 20016KT 09/M03 A2991 RMK A01 T00911028  RH  043%=      5-min Rain = 0
KFR1 180624Z 20017KT 09/M03 A2991 RMK A01 T00911027  RH  043%=      5-min Rain = 0
KFR1 180625Z 20015KT 09/M03 A2991 RMK A01 T00901028  RH  044%=      5-min Rain = 0
KFR1 180626Z 21015KT 09/M03 A2991 RMK A01 T00891028  RH  044%=      5-min Rain = 0
KFR1 180627Z 20015KT 09/M03 A2991 RMK A01 T00881028  RH  044%=      5-min Rain = 0
KFR1 180628Z 21015KT 09/M03 A2991 RMK A01 T00881028  RH  044%=      5-min Rain = 0
KFR1 180629Z 21016KT 09/M03 A2991 RMK A01 T00881028  RH  044%=      5-min Rain = 0
KFR1 180630Z 20015KT 09/M03 A2991 RMK A01 T00881028  RH  044%=      5-min Rain = 0
KFR1 180631Z 20016KT 09/M03 A2991 RMK A01 T00871028  RH  044%=      5-min Rain = 0
KFR1 180632Z 21017KT 09/M03 A2991 RMK A01 T00871028  RH  044%=      5-min Rain = 0
KFR1 180633Z 21015KT 09/M03 A2991 RMK A01 T00871028  RH  044%=      5-min Rain = 0
KFR1 180634Z 21016KT 09/M03 A2991 RMK A01 T00871028  RH  044%=      5-min Rain = 0
KFR1 180635Z 21016KT 09/M03 A2991 RMK A01 T00871028  RH  044%=      5-min Rain = 0
KFR1 180636Z 21016KT 09/M03 A2991 RMK A01 T00871028  RH  044%=      5-min Rain = 0
KFR1 180637Z 21014KT 09/M03 A2991 RMK A01 T00861028  RH  044%=      5-min Rain = 0
KFR1 180638Z 21016KT 09/M03 A2991 RMK A01 T00851028  RH  045%=      5-min Rain = 0
KFR1 180639Z 22016KT 09/M03 A2991 RMK A01 T00851028  RH  045%=      5-min Rain = 0
KFR1 180640Z 21015KT 08/M03 A2991 RMK A01 T00841028  RH  045%=      5-min Rain = 0
KFR1 180641Z 21014KT 08/M03 A2991 RMK A01 T00841028  RH  045%=      5-min Rain = 0
KFR1 180642Z 21015KT 08/M03 A2991 RMK A01 T00841028  RH  045%=      5-min Rain = 0
KFR1 180643Z 21016KT 08/M03 A2991 RMK A01 T00831028  RH  045%=      5-min Rain = 0
KFR1 180644Z 21016KT 08/M03 A2991 RMK A01 T00831028  RH  045%=      5-min Rain = 0
KFR1 180645Z 21015KT 08/M03 A2991 RMK A01 T00831028  RH  045%=      5-min Rain = 0
KFR1 180646Z 21016KT 08/M03 A299 RMK A01 T00821028  RH  046%=      5-min Rain = 0
KFR1 180647Z 20015KT 08/M03 A299 RMK A01 T00821028  RH  046%=      5-min Rain = 0
KFR1 180648Z 21016KT 08/M03 A299 RMK A01 T00811028  RH  046%=      5-min Rain = 0
KFR1 180649Z 20014KT 08/M03 A299 RMK A01 T00801028  RH  046%=      5-min Rain = 0
KFR1 180650Z 20013KT 08/M03 A299 RMK A01 T00791028  RH  046%=      5-min Rain = 0
KFR1 180651Z 20015KT 08/M03 A299 RMK A01 T00791028  RH  047%=      5-min Rain = 0
KFR1 180652Z 20015KT 08/M03 A299 RMK A01 T00781028  RH  047%=      5-min Rain = 0
KFR1 180653Z 20015KT 08/M03 A299 RMK A01 T00781029  RH  047%=      5-min Rain = 0
KFR1 180654Z 20015KT 08/M03 A299 RMK A01 T00781028  RH  047%=      5-min Rain = 0
KFR1 180655Z 20015G20KT 08/M03 A299 RMK A01 T00771028  RH  047%=      5-min Rain = 0
KFR1 180656Z 20014KT 08/M03 A299 RMK A01 T00771028  RH  047%=      5-min Rain = 0
KFR1 180657Z 20016KT 08/M03 A299 RMK A01 T00771028  RH  047%=      5-min Rain = 0
KFR1 180658Z 20015KT 08/M03 A2989 RMK A01 T00761028  RH  047%=      5-min Rain = 0
KFR1 180659Z 20015KT 08/M03 A2989 RMK A01 T00761028  RH  047%=      5-min Rain = 0
KFR1 180700Z 20016KT 08/M03 A2989 RMK A01 T00761028  RH  048%=      5-min Rain = 0
KFR1 180701Z 20018KT 08/M03 A2989 RMK A01 T00751029  RH  048%=      5-min Rain = 0
KFR1 180702Z 20018KT 08/M03 A2989 RMK A01 T00761028  RH  048%=      5-min Rain = 0
KFR1 180703Z 20017KT 08/M03 A2989 RMK A01 T00761029  RH  047%=      5-min Rain = 0
KFR1 180704Z 20018KT 08/M03 A2989 RMK A01 T00761029  RH  047%=      5-min Rain = 0
KFR1 180705Z 20017KT 08/M03 A2988 RMK A01 T00761029  RH  047%=      5-min Rain = 0
KFR1 180706Z 20016KT 08/M03 A2988 RMK A01 T00761029  RH  048%=      5-min Rain = 0
KFR1 180707Z 20016KT 08/M03 A2988 RMK A01 T00751029  RH  048%=      5-min Rain = 0
KFR1 180708Z 20017KT 07/M03 A2988 RMK A01 T00741029  RH  048%=      5-min Rain = 0
KFR1 180709Z 19018KT 07/M03 A2988 RMK A01 T00731029  RH  048%=      5-min Rain = 0
KFR1 180710Z 20016KT 07/M03 A2988 RMK A01 T00731028  RH  048%=      5-min Rain = 0
KFR1 180711Z 20016KT 07/M03 A2988 RMK A01 T00731028  RH  049%=      5-min Rain = 0
KFR1 180712Z 20016KT 07/M03 A2988 RMK A01 T00721028  RH  049%=      5-min Rain = 0
KFR1 180713Z 20015KT 07/M03 A2988 RMK A01 T00721028  RH  049%=      5-min Rain = 0
KFR1 180714Z 20016KT 07/M03 A2988 RMK A01 T00711028  RH  049%=      5-min Rain = 0
KFR1 180715Z 20016KT 07/M03 A2987 RMK A01 T00711028  RH  049%=      5-min Rain = 0
KFR1 180716Z 20017KT 07/M03 A2987 RMK A01 T00701028  RH  050%=      5-min Rain = 0
KFR1 180717Z 19016KT 07/M03 A2986 RMK A01 T00691028  RH  050%=      5-min Rain = 0
KFR1 180718Z 19018KT 07/M03 A2986 RMK A01 T00681028  RH  050%=      5-min Rain = 0
KFR1 180719Z 19019KT 07/M03 A2985 RMK A01 T00681028  RH  050%=      5-min Rain = 0
KFR1 180720Z 19020KT 07/M03 A2985 RMK A01 T00681028  RH  050%=      5-min Rain = 0
KFR1 180721Z 19019KT 07/M03 A2985 RMK A01 T00681028  RH  050%=      5-min Rain = 0
KFR1 180722Z 19020KT 07/M03 A2985 RMK A01 T00671028  RH  051%=      5-min Rain = 0
KFR1 180723Z 19019KT 07/M03 A2985 RMK A01 T00671028  RH  051%=      5-min Rain = 0
KFR1 180724Z 20019KT 07/M03 A2985 RMK A01 T00671028  RH  051%=      5-min Rain = 0
KFR1 180725Z 20019KT 07/M03 A2984 RMK A01 T00671028  RH  051%=      5-min Rain = 0
KFR1 180726Z 20018KT 07/M03 A2985 RMK A01 T00681027  RH  051%=      5-min Rain = 0
KFR1 180727Z 20018KT 07/M03 A2985 RMK A01 T00671027  RH  051%=      5-min Rain = 0
KFR1 180728Z 20018KT 07/M03 A2985 RMK A01 T00681027  RH  051%=      5-min Rain = 0
KFR1 180729Z 20018KT 07/M03 A2984 RMK A01 T00681027  RH  051%=      5-min Rain = 0
KFR1 180730Z 20018KT 07/M03 A2984 RMK A01 T00681027  RH  051%=      5-min Rain = 0
KFR1 180731Z 20017KT 07/M03 A2984 RMK A01 T00681027  RH  051%=      5-min Rain = 0
KFR1 180732Z 20019KT 07/M03 A2984 RMK A01 T00681027  RH  051%=      5-min Rain = 0
KFR1 180733Z 19019KT 07/M03 A2984 RMK A01 T00691026  RH  051%=      5-min Rain = 0
KFR1 180734Z 20019KT 07/M03 A2983 RMK A01 T00691026  RH  051%=      5-min Rain = 0
KFR1 180735Z 19019KT 07/M03 A2983 RMK A01 T00691026  RH  051%=      5-min Rain = 0
KFR1 180736Z 20018KT 07/M03 A2983 RMK A01 T00701026  RH  051%=      5-min Rain = 0
KFR1 180737Z 20018KT 07/M03 A2983 RMK A01 T00701026  RH  051%=      5-min Rain = 0
KFR1 180738Z 20018KT 07/M03 A2983 RMK A01 T00711025  RH  050%=      5-min Rain = 0
KFR1 180739Z 20016KT 07/M03 A2983 RMK A01 T00721025  RH  050%=      5-min Rain = 0
KFR1 180740Z 20015KT 07/M03 A2983 RMK A01 T00721025  RH  050%=      5-min Rain = 0
KFR1 180741Z 20015KT 07/M03 A2983 RMK A01 T00711025  RH  050%=      5-min Rain = 0
KFR1 180742Z 20013KT 07/M03 A2983 RMK A01 T00721025  RH  050%=      5-min Rain = 0
KFR1 180743Z 20014KT 07/M03 A2984 RMK A01 T00721025  RH  050%=      5-min Rain = 0
KFR1 180744Z 21013KT 07/M02 A2984 RMK A01 T00731024  RH  050%=      5-min Rain = 0
KFR1 180745Z 21012KT 07/M02 A2984 RMK A01 T00731024  RH  050%=      5-min Rain = 0
KFR1 180746Z 22012KT 07/M02 A2984 RMK A01 T00731024  RH  050%=      5-min Rain = 0
KFR1 180747Z 21012KT 07/M02 A2985 RMK A01 T00731024  RH  050%=      5-min Rain = 0
KFR1 180748Z 22012KT 07/M02 A2984 RMK A01 T00741024  RH  050%=      5-min Rain = 0
KFR1 180749Z 22013KT 08/M02 A2984 RMK A01 T00761023  RH  049%=      5-min Rain = 0
KFR1 180750Z 22013KT 08/M02 A2984 RMK A01 T00761024  RH  049%=      5-min Rain = 0
KFR1 180751Z 21016KT 08/M02 A2984 RMK A01 T00771023  RH  049%=      5-min Rain = 0
KFR1 180752Z 21017KT 08/M02 A2983 RMK A01 T00791023  RH  048%=      5-min Rain = 0
KFR1 180753Z 21017KT 08/M02 A2983 RMK A01 T00801024  RH  048%=      5-min Rain = 0
KFR1 180754Z 21017KT 08/M02 A2983 RMK A01 T00801024  RH  048%=      5-min Rain = 0
KFR1 180755Z 21019KT 08/M02 A2983 RMK A01 T00801024  RH  048%=      5-min Rain = 0
KFR1 180756Z 21019KT 08/M02 A2983 RMK A01 T00811023  RH  048%=      5-min Rain = 0
KFR1 180757Z 22018KT 08/M02 A2983 RMK A01 T00801024  RH  048%=      5-min Rain = 0
KFR1 180758Z 21018KT 08/M02 A2983 RMK A01 T00811023  RH  048%=      5-min Rain = 0
KFR1 180759Z 21020KT 08/M02 A2982 RMK A01 T00811023  RH  048%=      5-min Rain = 0
KFR1 180800Z 21019KT 08/M02 A2982 RMK A01 T00811024  RH  048%=      5-min Rain = 0
KFR1 180801Z 21021KT 08/M02 A2982 RMK A01 T00811024  RH  048%=      5-min Rain = 0
KFR1 180802Z 21020KT 08/M02 A2982 RMK A01 T00821024  RH  047%=      5-min Rain = 0
KFR1 180803Z 21018KT 08/M02 A2982 RMK A01 T00821024  RH  047%=      5-min Rain = 0
KFR1 180804Z 21020KT 08/M02 A2982 RMK A01 T00821024  RH  047%=      5-min Rain = 0
KFR1 180805Z 21019KT 08/M02 A2982 RMK A01 T00821024  RH  047%=      5-min Rain = 0
KFR1 180806Z 21019KT 08/M02 A2982 RMK A01 T00821024  RH  047%=      5-min Rain = 0
KFR1 180807Z 21019KT 08/M02 A2982 RMK A01 T00821024  RH  047%=      5-min Rain = 0
KFR1 180808Z 21020G25KT 08/M02 A2982 RMK A01 T00821024  RH  047%=      5-min Rain = 0
KFR1 180809Z 21019KT 08/M02 A2982 RMK A01 T00831024  RH  047%=      5-min Rain = 0
KFR1 180810Z 21018G23KT 08/M02 A2982 RMK A01 T00841024  RH  046%=      5-min Rain = 0
KFR1 180811Z 21019G24KT 08/M03 A2982 RMK A01 T00841025  RH  046%=      5-min Rain = 0
KFR1 180812Z 21019KT 08/M03 A2982 RMK A01 T00841025  RH  046%=      5-min Rain = 0
KFR1 180813Z 21019KT 08/M03 A2982 RMK A01 T00841025  RH  046%=      5-min Rain = 0
KFR1 180814Z 21019KT 08/M03 A2982 RMK A01 T00841025  RH  046%=      5-min Rain = 0
KFR1 180815Z 20019KT 08/M03 A2982 RMK A01 T00841025  RH  046%=      5-min Rain = 0
KFR1 180816Z 21019KT 08/M03 A2982 RMK A01 T00841025  RH  046%=      5-min Rain = 0
KFR1 180817Z 21019KT 09/M03 A2982 RMK A01 T00851025  RH  046%=      5-min Rain = 0
KFR1 180818Z 21018KT 09/M03 A2982 RMK A01 T00851026  RH  046%=      5-min Rain = 0
KFR1 180819Z 21019KT 09/M03 A2982 RMK A01 T00851026  RH  046%=      5-min Rain = 0
KFR1 180820Z 21020KT 09/M03 A2981 RMK A01 T00861026  RH  045%=      5-min Rain = 0
KFR1 180821Z 21021KT 09/M03 A2981 RMK A01 T00871026  RH  045%=      5-min Rain = 0
KFR1 180822Z 20018KT 09/M03 A2981 RMK A01 T00881026  RH  045%=      5-min Rain = 0
KFR1 180823Z 21019G24KT 09/M03 A2981 RMK A01 T00871026  RH  045%=      5-min Rain = 0
KFR1 180824Z 20019G24KT 09/M03 A2981 RMK A01 T00881027  RH  045%=      5-min Rain = 0
KFR1 180825Z 20018KT 09/M03 A2981 RMK A01 T00881026  RH  044%=      5-min Rain = 0
KFR1 180826Z 21018KT 09/M03 A2981 RMK A01 T00881027  RH  044%=      5-min Rain = 0
KFR1 180827Z 20017KT 09/M03 A2981 RMK A01 T00881026  RH  044%=      5-min Rain = 0
KFR1 180828Z 20018KT 09/M03 A2981 RMK A01 T00881027  RH  044%=      5-min Rain = 0
KFR1 180829Z 21018KT 09/M03 A2982 RMK A01 T00871027  RH  045%=      5-min Rain = 0
KFR1 180830Z 21018KT 09/M03 A2982 RMK A01 T00871027  RH  045%=      5-min Rain = 0
KFR1 180831Z 21017KT 09/M03 A2982 RMK A01 T00871027  RH  045%=      5-min Rain = 0
KFR1 180832Z 21017KT 09/M03 A2982 RMK A01 T00871027  RH  045%=      5-min Rain = 0
KFR1 180833Z 21016KT 09/M03 A2982 RMK A01 T00871027  RH  045%=      5-min Rain = 0
KFR1 180834Z 21015KT 09/M03 A2982 RMK A01 T00871027  RH  044%=      5-min Rain = 0
KFR1 180835Z 20016KT 09/M03 A2982 RMK A01 T00871027  RH  044%=      5-min Rain = 0
KFR1 180836Z 20017KT 09/M03 A2982 RMK A01 T00871028  RH  044%=      5-min Rain = 0
KFR1 180837Z 21017G22KT 09/M03 A2982 RMK A01 T00881028  RH  044%=      5-min Rain = 0
KFR1 180838Z 21018KT 09/M03 A2982 RMK A01 T00881028  RH  044%=      5-min Rain = 0
KFR1 180839Z 21017KT 09/M03 A2982 RMK A01 T00881028  RH  044%=      5-min Rain = 0
KFR1 180840Z 21018KT 09/M03 A2982 RMK A01 T00891028  RH  044%=      5-min Rain = 0
KFR1 180841Z 21016KT 09/M03 A2982 RMK A01 T00891028  RH  044%=      5-min Rain = 0
KFR1 180842Z 21018KT 09/M03 A2982 RMK A01 T00881028  RH  044%=      5-min Rain = 0
KFR1 180843Z 21018KT 09/M03 A2982 RMK A01 T00881028  RH  044%=      5-min Rain = 0
KFR1 180844Z 20018KT 09/M03 A2981 RMK A01 T00881028  RH  044%=      5-min Rain = 0
KFR1 180845Z 21017KT 09/M03 A2981 RMK A01 T00881029  RH  044%=      5-min Rain = 0
KFR1 180846Z 21018KT 09/M03 A2981 RMK A01 T00881029  RH  044%=      5-min Rain = 0
KFR1 180847Z 21017KT 09/M03 A2981 RMK A01 T00891028  RH  044%=      5-min Rain = 0
KFR1 180848Z 21017KT 09/M03 A2981 RMK A01 T00881029  RH  044%=      5-min Rain = 0
KFR1 180849Z 20016KT 09/M03 A2981 RMK A01 T00881029  RH  044%=      5-min Rain = 0
KFR1 180850Z 21016KT 09/M03 A2981 RMK A01 T00881029  RH  044%=      5-min Rain = 0
KFR1 180851Z 20016KT 09/M03 A2981 RMK A01 T00881029  RH  044%=      5-min Rain = 0
KFR1 180852Z 20015KT 09/M03 A2981 RMK A01 T00871029  RH  044%=      5-min Rain = 0
KFR1 180853Z 21017KT 09/M03 A298 RMK A01 T00871029  RH  044%=      5-min Rain = 0
KFR1 180854Z 21016KT 09/M03 A298 RMK A01 T00871029  RH  044%=      5-min Rain = 0
KFR1 180855Z 20017KT 09/M03 A298 RMK A01 T00871030  RH  044%=      5-min Rain = 0
KFR1 180856Z 21016KT 09/M03 A298 RMK A01 T00871030  RH  044%=      5-min Rain = 0
KFR1 180857Z 20017KT 09/M03 A298 RMK A01 T00881030  RH  043%=      5-min Rain = 0
KFR1 180858Z 21016KT 09/M03 A298 RMK A01 T00881030  RH  043%=      5-min Rain = 0
KFR1 180859Z 21016KT 09/M03 A298 RMK A01 T00881030  RH  043%=      5-min Rain = 0
KFR1 180900Z 21015KT 09/M03 A298 RMK A01 T00881030  RH  043%=      5-min Rain = 0
KFR1 180901Z 20015KT 09/M03 A298 RMK A01 T00881030  RH  043%=      5-min Rain = 0
KFR1 180902Z 20016KT 09/M03 A298 RMK A01 T00881030  RH  043%=      5-min Rain = 0
KFR1 180903Z 21016KT 09/M03 A298 RMK A01 T00881031  RH  043%=      5-min Rain = 0
KFR1 180904Z 20016KT 09/M03 A298 RMK A01 T00881031  RH  043%=      5-min Rain = 0
KFR1 180905Z 21014KT 09/M03 A298 RMK A01 T00881031  RH  043%=      5-min Rain = 0
KFR1 180906Z 21015KT 09/M03 A2981 RMK A01 T00881031  RH  043%=      5-min Rain = 0
KFR1 180907Z 21017KT 09/M03 A2981 RMK A01 T00881031  RH  043%=      5-min Rain = 0
KFR1 180908Z 21015KT 09/M03 A2981 RMK A01 T00891031  RH  043%=      5-min Rain = 0
KFR1 180909Z 21014KT 09/M03 A2981 RMK A01 T00891031  RH  043%=      5-min Rain = 0
KFR1 180910Z 22013KT 09/M03 A2981 RMK A01 T00891032  RH  043%=      5-min Rain = 0
KFR1 180911Z 21014KT 09/M03 A2981 RMK A01 T00891032  RH  043%=      5-min Rain = 0
KFR1 180912Z 22014KT 09/M03 A2981 RMK A01 T00891032  RH  043%=      5-min Rain = 0
KFR1 180913Z 22013KT 09/M03 A2982 RMK A01 T00881032  RH  043%=      5-min Rain = 0
KFR1 180914Z 22013KT 09/M03 A2982 RMK A01 T00881032  RH  043%=      5-min Rain = 0
KFR1 180915Z 22014KT 09/M03 A2982 RMK A01 T00881032  RH  043%=      5-min Rain = 0
KFR1 180916Z 22013KT 09/M03 A2982 RMK A01 T00881032  RH  043%=      5-min Rain = 0
KFR1 180917Z 23015KT 09/M03 A2982 RMK A01 T00891033  RH  042%=      5-min Rain = 0
KFR1 180918Z 22014KT 09/M03 A2982 RMK A01 T00901033  RH  042%=      5-min Rain = 0
KFR1 180919Z 22015KT 09/M03 A2981 RMK A01 T00911033  RH  042%=      5-min Rain = 0
KFR1 180920Z 21014KT 09/M03 A2981 RMK A01 T00911033  RH  041%=      5-min Rain = 0
KFR1 180921Z 21015KT 09/M03 A298 RMK A01 T00911033  RH  041%=      5-min Rain = 0
KFR1 180922Z 21014KT 09/M03 A2981 RMK A01 T00911034  RH  041%=      5-min Rain = 0
KFR1 180923Z 21016KT 09/M03 A298 RMK A01 T00911034  RH  041%=      5-min Rain = 0
KFR1 180924Z 21015KT 09/M03 A298 RMK A01 T00921034  RH  041%=      5-min Rain = 0
KFR1 180925Z 21017KT 09/M03 A298 RMK A01 T00921034  RH  041%=      5-min Rain = 0
KFR1 180926Z 21016KT 09/M03 A298 RMK A01 T00921034  RH  041%=      5-min Rain = 0
KFR1 180927Z 20016G21KT 09/M03 A298 RMK A01 T00921034  RH  041%=      5-min Rain = 0
KFR1 180928Z 21016G24KT 09/M03 A298 RMK A01 T00921034  RH  041%=      5-min Rain = 0
KFR1 180929Z 21018KT 09/M03 A2979 RMK A01 T00921034  RH  041%=      5-min Rain = 0
KFR1 180930Z 21017KT 09/M03 A2979 RMK A01 T00931034  RH  041%=      5-min Rain = 0
KFR1 180931Z 21018KT 09/M04 A2979 RMK A01 T00931035  RH  040%=      5-min Rain = 0
KFR1 180932Z 21016KT 09/M03 A2979 RMK A01 T00931034  RH  040%=      5-min Rain = 0
KFR1 180933Z 21018KT 09/M04 A2979 RMK A01 T00931035  RH  040%=      5-min Rain = 0
KFR1 180934Z 21018KT 09/M03 A2979 RMK A01 T00931034  RH  040%=      5-min Rain = 0
KFR1 180935Z 21019KT 09/M04 A2979 RMK A01 T00931035  RH  040%=      5-min Rain = 0
KFR1 180936Z 21020KT 09/M04 A2979 RMK A01 T00941035  RH  040%=      5-min Rain = 0
KFR1 180937Z 21019KT 09/M04 A2979 RMK A01 T00941035  RH  040%=      5-min Rain = 0
KFR1 180938Z 21018KT 10/M04 A2979 RMK A01 T00951035  RH  040%=      5-min Rain = 0
KFR1 180939Z 21020KT 10/M04 A2979 RMK A01 T00951035  RH  040%=      5-min Rain = 0
KFR1 180940Z 21020KT 10/M04 A2979 RMK A01 T00951035  RH  040%=      5-min Rain = 0
KFR1 180941Z 21019KT 10/M04 A2979 RMK A01 T00951035  RH  040%=      5-min Rain = 0
KFR1 180942Z 21019KT 10/M04 A2978 RMK A01 T00951035  RH  040%=      5-min Rain = 0
KFR1 180943Z 21019KT 10/M04 A2978 RMK A01 T00951035  RH  040%=      5-min Rain = 0
KFR1 180944Z 21019KT 10/M04 A2979 RMK A01 T00951035  RH  040%=      5-min Rain = 0
KFR1 180945Z 21018KT 09/M04 A2979 RMK A01 T00941035  RH  040%=      5-min Rain = 0
KFR1 180946Z 21017G22KT 09/M04 A2979 RMK A01 T00941035  RH  040%=      5-min Rain = 0
KFR1 180947Z 21019KT 09/M03 A2978 RMK A01 T00941034  RH  040%=      5-min Rain = 0
KFR1 180948Z 21019KT 09/M04 A2978 RMK A01 T00931035  RH  040%=      5-min Rain = 0
KFR1 180949Z 21019KT 09/M04 A2978 RMK A01 T00931035  RH  040%=      5-min Rain = 0
KFR1 180950Z 21020KT 09/M04 A2978 RMK A01 T00931035  RH  040%=      5-min Rain = 0
KFR1 180951Z 21018KT 09/M04 A2978 RMK A01 T00931035  RH  040%=      5-min Rain = 0
KFR1 180952Z 21019KT 09/M04 A2978 RMK A01 T00931035  RH  040%=      5-min Rain = 0
KFR1 180953Z 21019KT 09/M04 A2978 RMK A01 T00921035  RH  040%=      5-min Rain = 0
KFR1 180954Z 21021KT 09/M04 A2977 RMK A01 T00921035  RH  040%=      5-min Rain = 0
KFR1 180955Z 21019G26KT 09/M04 A2977 RMK A01 T00931035  RH  040%=      5-min Rain = 0
KFR1 180956Z 21019G24KT 09/M04 A2977 RMK A01 T00921035  RH  041%=      5-min Rain = 0
KFR1 180957Z 21021KT 09/M04 A2977 RMK A01 T00921035  RH  041%=      5-min Rain = 0
KFR1 180958Z 21022KT 09/M04 A2977 RMK A01 T00931035  RH  040%=      5-min Rain = 0
KFR1 180959Z 21021KT 09/M04 A2977 RMK A01 T00921036  RH  040%=      5-min Rain = 0
KFR1 181000Z 21020G25KT 09/M04 A2977 RMK A01 T00921035  RH  040%=      5-min Rain = 0
KFR1 181001Z 21024KT 09/M04 A2976 RMK A01 T00921035  RH  040%=      5-min Rain = 0
KFR1 181002Z 21020KT 09/M04 A2976 RMK A01 T00931036  RH  040%=      5-min Rain = 0
KFR1 181003Z 21022KT 09/M04 A2976 RMK A01 T00931035  RH  040%=      5-min Rain = 0
KFR1 181004Z 21020KT 09/M04 A2977 RMK A01 T00931035  RH  040%=      5-min Rain = 0
KFR1 181005Z 21020KT 09/M04 A2977 RMK A01 T00931035  RH  040%=      5-min Rain = 0
KFR1 181006Z 21020KT 09/M04 A2977 RMK A01 T00921036  RH  041%=      5-min Rain = 0
KFR1 181007Z 21020KT 09/M04 A2977 RMK A01 T00911035  RH  041%=      5-min Rain = 0
KFR1 181008Z 21019KT 09/M04 A2976 RMK A01 T00911035  RH  041%=      5-min Rain = 0
KFR1 181009Z 21021G27KT 09/M04 A2976 RMK A01 T00901035  RH  041%=      5-min Rain = 0
KFR1 181010Z 21019G25KT 09/M04 A2976 RMK A01 T00901035  RH  041%=      5-min Rain = 0
KFR1 181011Z 21020KT 09/M04 A2976 RMK A01 T00901035  RH  041%=      5-min Rain = 0
KFR1 181012Z 21019KT 09/M04 A2976 RMK A01 T00901035  RH  041%=      5-min Rain = 0
KFR1 181013Z 21021KT 09/M04 A2976 RMK A01 T00901035  RH  041%=      5-min Rain = 0
KFR1 181014Z 21020KT 09/M04 A2976 RMK A01 T00891035  RH  041%=      5-min Rain = 0
KFR1 181015Z 21021KT 09/M04 A2976 RMK A01 T00901035  RH  041%=      5-min Rain = 0
KFR1 181016Z 21022KT 09/M04 A2976 RMK A01 T00901035  RH  041%=      5-min Rain = 0
KFR1 181017Z 21020KT 09/M04 A2976 RMK A01 T00911035  RH  041%=      5-min Rain = 0
KFR1 181018Z 21020G27KT 09/M04 A2976 RMK A01 T00911035  RH  041%=      5-min Rain = 0
KFR1 181019Z 21021KT 09/M04 A2976 RMK A01 T00911035  RH  041%=      5-min Rain = 0
KFR1 181020Z 21019KT 09/M04 A2976 RMK A01 T00911035  RH  041%=      5-min Rain = 0
KFR1 181021Z 21021KT 09/M04 A2976 RMK A01 T00901035  RH  041%=      5-min Rain = 0
KFR1 181022Z 20019KT 09/M04 A2976 RMK A01 T00891035  RH  041%=      5-min Rain = 0
KFR1 181023Z 21019KT 09/M04 A2976 RMK A01 T00891035  RH  042%=      5-min Rain = 0
KFR1 181024Z 21020KT 09/M04 A2976 RMK A01 T00881035  RH  042%=      5-min Rain = 0
KFR1 181025Z 21019G24KT 09/M03 A2976 RMK A01 T00881034  RH  042%=      5-min Rain = 0
KFR1 181026Z 21019KT 09/M03 A2976 RMK A01 T00881034  RH  042%=      5-min Rain = 0
KFR1 181027Z 21020KT 09/M03 A2975 RMK A01 T00881034  RH  042%=      5-min Rain = 0
KFR1 181028Z 21020KT 09/M03 A2975 RMK A01 T00881034  RH  042%=      5-min Rain = 0
KFR1 181029Z 20018G23KT 09/M04 A2975 RMK A01 T00881035  RH  042%=      5-min Rain = 0
KFR1 181030Z 20018KT 09/M03 A2975 RMK A01 T00881034  RH  042%=      5-min Rain = 0
KFR1 181031Z 21018KT 09/M03 A2975 RMK A01 T00871034  RH  042%=      5-min Rain = 0
KFR1 181032Z 21019KT 09/M03 A2975 RMK A01 T00871034  RH  042%=      5-min Rain = 0
KFR1 181033Z 21020G26KT 09/M03 A2975 RMK A01 T00871034  RH  042%=      5-min Rain = 0
KFR1 181034Z 21020KT 09/M03 A2975 RMK A01 T00871034  RH  042%=      5-min Rain = 0
KFR1 181035Z 21019G24KT 09/M04 A2974 RMK A01 T00861035  RH  042%=      5-min Rain = 0
KFR1 181036Z 21019KT 09/M03 A2974 RMK A01 T00871034  RH  042%=      5-min Rain = 0
KFR1 181037Z 21019KT 09/M03 A2974 RMK A01 T00871034  RH  042%=      5-min Rain = 0
KFR1 181038Z 20018KT 09/M03 A2974 RMK A01 T00861034  RH  043%=      5-min Rain = 0
KFR1 181039Z 21018KT 09/M03 A2974 RMK A01 T00851034  RH  043%=      5-min Rain = 0
KFR1 181040Z 20017KT 09/M03 A2974 RMK A01 T00851034  RH  043%=      5-min Rain = 0
KFR1 181041Z 20018KT 09/M03 A2974 RMK A01 T00851034  RH  043%=      5-min Rain = 0
KFR1 181042Z 20019G24KT 09/M03 A2974 RMK A01 T00851034  RH  043%=      5-min Rain = 0
KFR1 181043Z 21020KT 09/M03 A2974 RMK A01 T00851034  RH  043%=      5-min Rain = 0
KFR1 181044Z 20020G25KT 08/M03 A2974 RMK A01 T00841034  RH  043%=      5-min Rain = 0
KFR1 181045Z 21020KT 09/M03 A2974 RMK A01 T00851034  RH  043%=      5-min Rain = 0
KFR1 181046Z 21020KT 08/M03 A2974 RMK A01 T00841034  RH  043%=      5-min Rain = 0
KFR1 181047Z 21020KT 08/M03 A2974 RMK A01 T00841034  RH  043%=      5-min Rain = 0
KFR1 181048Z 21021KT 08/M03 A2974 RMK A01 T00841034  RH  043%=      5-min Rain = 0
KFR1 181049Z 21021KT 08/M03 A2974 RMK A01 T00841034  RH  043%=      5-min Rain = 0
KFR1 181050Z 21020KT 08/M03 A2974 RMK A01 T00831034  RH  043%=      5-min Rain = 0
KFR1 181051Z 21020KT 08/M03 A2974 RMK A01 T00831034  RH  043%=      5-min Rain = 0
KFR1 181052Z 21020KT 08/M03 A2974 RMK A01 T00841034  RH  043%=      5-min Rain = 0
KFR1 181053Z 21020G27KT 08/M03 A2974 RMK A01 T00841034  RH  043%=      5-min Rain = 0
KFR1 181054Z 21021KT 08/M03 A2973 RMK A01 T00841034  RH  043%=      5-min Rain = 0
KFR1 181055Z 21019G24KT 09/M03 A2973 RMK A01 T00851034  RH  043%=      5-min Rain = 0
KFR1 181056Z 22019KT 09/M03 A2973 RMK A01 T00851034  RH  043%=      5-min Rain = 0
KFR1 181057Z 21019G24KT 09/M03 A2973 RMK A01 T00851033  RH  043%=      5-min Rain = 0
KFR1 181058Z 21019KT 09/M03 A2973 RMK A01 T00861033  RH  043%=      5-min Rain = 0
KFR1 181059Z 21020KT 09/M03 A2973 RMK A01 T00851033  RH  043%=      5-min Rain = 0
KFR1 181100Z 21019KT 09/M03 A2973 RMK A01 T00851033  RH  043%=      5-min Rain = 0
KFR1 181101Z 21019G25KT 09/M03 A2973 RMK A01 T00851034  RH  043%=      5-min Rain = 0
KFR1 181102Z 21019KT 08/M03 A2973 RMK A01 T00841034  RH  043%=      5-min Rain = 0
KFR1 181103Z 21020KT 08/M03 A2973 RMK A01 T00841033  RH  043%=      5-min Rain = 0
KFR1 181104Z 21020KT 08/M03 A2973 RMK A01 T00841033  RH  043%=      5-min Rain = 0
KFR1 181105Z 20019KT 08/M03 A2973 RMK A01 T00841034  RH  043%=      5-min Rain = 0
KFR1 181106Z 21019G24KT 08/M03 A2973 RMK A01 T00841033  RH  043%=      5-min Rain = 0
KFR1 181107Z 21019KT 08/M03 A2973 RMK A01 T00841034  RH  043%=      5-min Rain = 0
KFR1 181108Z 20017KT 08/M03 A2973 RMK A01 T00841034  RH  043%=      5-min Rain = 0
KFR1 181109Z 21018KT 08/M03 A2973 RMK A01 T00841034  RH  043%=      5-min Rain = 0
KFR1 181110Z 21019KT 08/M03 A2973 RMK A01 T00841033  RH  043%=      5-min Rain = 0
KFR1 181111Z 21018KT 08/M03 A2973 RMK A01 T00841033  RH  044%=      5-min Rain = 0
KFR1 181112Z 21019KT 08/M03 A2973 RMK A01 T00831034  RH  043%=      5-min Rain = 0
KFR1 181113Z 21019KT 08/M03 A2973 RMK A01 T00831034  RH  044%=      5-min Rain = 0
KFR1 181114Z 21018KT 08/M03 A2973 RMK A01 T00841034  RH  043%=      5-min Rain = 0
KFR1 181115Z 21018G23KT 08/M03 A2973 RMK A01 T00831034  RH  043%=      5-min Rain = 0
KFR1 181116Z 21020KT 08/M03 A2973 RMK A01 T00841033  RH  043%=      5-min Rain = 0
KFR1 181117Z 21019KT 09/M03 A2973 RMK A01 T00851033  RH  043%=      5-min Rain = 0
KFR1 181118Z 21020KT 09/M03 A2973 RMK A01 T00851033  RH  043%=      5-min Rain = 0
KFR1 181119Z 21018KT 09/M03 A2973 RMK A01 T00851034  RH  043%=      5-min Rain = 0
KFR1 181120Z 21018KT 09/M03 A2973 RMK A01 T00861033  RH  043%=      5-min Rain = 0
KFR1 181121Z 21019KT 09/M03 A2973 RMK A01 T00861033  RH  043%=      5-min Rain = 0
KFR1 181122Z 21020KT 09/M03 A2973 RMK A01 T00861033  RH  043%=      5-min Rain = 0
KFR1 181123Z 22018KT 09/M03 A2973 RMK A01 T00871033  RH  043%=      5-min Rain = 0
KFR1 181124Z 21017KT 09/M03 A2973 RMK A01 T00861034  RH  043%=      5-min Rain = 0
KFR1 181125Z 21017KT 09/M03 A2973 RMK A01 T00861034  RH  043%=      5-min Rain = 0
KFR1 181126Z 21016KT 09/M03 A2973 RMK A01 T00871033  RH  043%=      5-min Rain = 0
KFR1 181127Z 21016KT 09/M03 A2973 RMK A01 T00871034  RH  043%=      5-min Rain = 0
KFR1 181128Z 21016KT 09/M03 A2973 RMK A01 T00871033  RH  043%=      5-min Rain = 0
KFR1 181129Z 21016KT 09/M03 A2973 RMK A01 T00871033  RH  043%=      5-min Rain = 0
KFR1 181130Z 21015KT 09/M03 A2973 RMK A01 T00871033  RH  043%=      5-min Rain = 0
KFR1 181131Z 21015KT 09/M03 A2972 RMK A01 T00861033  RH  043%=      5-min Rain = 0
KFR1 181132Z 21014KT 09/M03 A2972 RMK A01 T00861034  RH  043%=      5-min Rain = 0
KFR1 181133Z 21014KT 09/M03 A2972 RMK A01 T00861034  RH  043%=      5-min Rain = 0
KFR1 181134Z 21014KT 09/M03 A2972 RMK A01 T00851034  RH  043%=      5-min Rain = 0
KFR1 181135Z 21015KT 09/M03 A2972 RMK A01 T00861034  RH  043%=      5-min Rain = 0
KFR1 181136Z 21015KT 09/M03 A2972 RMK A01 T00861034  RH  043%=      5-min Rain = 0
KFR1 181137Z 21015KT 09/M03 A2972 RMK A01 T00861034  RH  043%=      5-min Rain = 0
KFR1 181138Z 21015KT 09/M03 A2972 RMK A01 T00861034  RH  043%=      5-min Rain = 0
KFR1 181139Z 22014KT 09/M03 A2972 RMK A01 T00861034  RH  043%=      5-min Rain = 0
KFR1 181140Z 22015KT 09/M03 A2972 RMK A01 T00861034  RH  043%=      5-min Rain = 0
KFR1 181141Z 22014KT 09/M03 A2972 RMK A01 T00861033  RH  043%=      5-min Rain = 0
KFR1 181142Z 22013KT 09/M03 A2972 RMK A01 T00861033  RH  043%=      5-min Rain = 0
KFR1 181143Z 22013KT 09/M03 A2972 RMK A01 T00851033  RH  043%=      5-min Rain = 0
KFR1 181144Z 22013KT 09/M03 A2972 RMK A01 T00851033  RH  043%=      5-min Rain = 0
KFR1 181145Z 22012KT 09/M03 A2972 RMK A01 T00851033  RH  043%=      5-min Rain = 0
KFR1 181146Z 22014KT 08/M03 A2972 RMK A01 T00841033  RH  044%=      5-min Rain = 0
KFR1 181147Z 22014KT 08/M03 A2972 RMK A01 T00841033  RH  044%=      5-min Rain = 0
KFR1 181148Z 23012KT 09/M03 A2972 RMK A01 T00851033  RH  043%=      5-min Rain = 0
KFR1 181149Z 22013KT 09/M03 A2972 RMK A01 T00851033  RH  043%=      5-min Rain = 0
KFR1 181150Z 23013KT 09/M03 A2972 RMK A01 T00861033  RH  043%=      5-min Rain = 0
KFR1 181151Z 23013KT 09/M03 A2972 RMK A01 T00861033  RH  043%=      5-min Rain = 0
KFR1 181152Z 22012KT 09/M03 A2972 RMK A01 T00861033  RH  043%=      5-min Rain = 0
KFR1 181153Z 22013KT 09/M03 A2971 RMK A01 T00861033  RH  043%=      5-min Rain = 0
KFR1 181154Z 22013KT 09/M03 A2971 RMK A01 T00861033  RH  043%=      5-min Rain = 0
KFR1 181155Z 22011KT 09/M03 A2971 RMK A01 T00861033  RH  043%=      5-min Rain = 0
KFR1 181156Z 22015KT 09/M03 A2971 RMK A01 T00851032  RH  043%=      5-min Rain = 0
KFR1 181157Z 22013KT 09/M03 A2971 RMK A01 T00861033  RH  043%=      5-min Rain = 0
KFR1 181158Z 22013KT 09/M03 A2971 RMK A01 T00861032  RH  043%=      5-min Rain = 0
KFR1 181159Z 22014KT 09/M03 A2971 RMK A01 T00861032  RH  043%=      5-min Rain = 0
KFR1 181200Z 22012KT 09/M03 A2971 RMK A01 T00871032  RH  043%=      5-min Rain = 0
KFR1 181201Z 22011KT 09/M03 A2971 RMK A01 T00871033  RH  043%=      5-min Rain = 0
KFR1 181202Z 23012KT 09/M03 A2971 RMK A01 T00861032  RH  043%=      5-min Rain = 0
KFR1 181203Z 22011KT 09/M03 A2971 RMK A01 T00851032  RH  043%=      5-min Rain = 0
KFR1 181204Z 22011KT 09/M03 A2971 RMK A01 T00851032  RH  043%=      5-min Rain = 0
KFR1 181205Z 22013KT 09/M03 A2971 RMK A01 T00861032  RH  044%=      5-min Rain = 0
KFR1 181206Z 21013KT 09/M03 A2971 RMK A01 T00861032  RH  043%=      5-min Rain = 0
KFR1 181207Z 22014KT 09/M03 A297 RMK A01 T00861032  RH  043%=      5-min Rain = 0
KFR1 181208Z 21015KT 09/M03 A297 RMK A01 T00861032  RH  043%=      5-min Rain = 0
KFR1 181209Z 22013KT 09/M03 A297 RMK A01 T00861032  RH  043%=      5-min Rain = 0
KFR1 181210Z 21015KT 09/M03 A297 RMK A01 T00861032  RH  043%=      5-min Rain = 0
KFR1 181211Z 22014KT 09/M03 A297 RMK A01 T00871032  RH  043%=      5-min Rain = 0
KFR1 181212Z 22014KT 09/M03 A297 RMK A01 T00871031  RH  043%=      5-min Rain = 0
KFR1 181213Z 22014KT 09/M03 A297 RMK A01 T00871032  RH  043%=      5-min Rain = 0
KFR1 181214Z 22015KT 09/M03 A297 RMK A01 T00871031  RH  043%=      5-min Rain = 0
KFR1 181215Z 23014KT 09/M03 A297 RMK A01 T00881031  RH  043%=      5-min Rain = 0
KFR1 181216Z 22012G18KT 09/M03 A297 RMK A01 T00881031  RH  043%=      5-min Rain = 0
KFR1 181217Z 23013KT 09/M03 A297 RMK A01 T00871031  RH  043%=      5-min Rain = 0
KFR1 181218Z 22014KT 09/M03 A297 RMK A01 T00881031  RH  043%=      5-min Rain = 0
KFR1 181219Z 22014KT 09/M03 A297 RMK A01 T00891031  RH  043%=      5-min Rain = 0
KFR1 181220Z 23013KT 09/M03 A2971 RMK A01 T00891031  RH  043%=      5-min Rain = 0
KFR1 181221Z 24014KT 09/M03 A2971 RMK A01 T00891031  RH  043%=      5-min Rain = 0
KFR1 181222Z 25012KT 09/M03 A2972 RMK A01 T00891030  RH  043%=      5-min Rain = 0
KFR1 181223Z 24014KT 09/M03 A2972 RMK A01 T00891030  RH  043%=      5-min Rain = 0
KFR1 181224Z 24016KT 09/M03 A2972 RMK A01 T00891030  RH  043%=      5-min Rain = 0
KFR1 181225Z 24014KT 09/M03 A2971 RMK A01 T00901030  RH  043%=      5-min Rain = 0
KFR1 181226Z 24012KT 09/M03 A2971 RMK A01 T00901030  RH  043%=      5-min Rain = 0
KFR1 181227Z 23013KT 09/M03 A2971 RMK A01 T00891030  RH  043%=      5-min Rain = 0
KFR1 181228Z 23013KT 09/M03 A2971 RMK A01 T00891030  RH  043%=      5-min Rain = 0
KFR1 181229Z 23017KT 09/M03 A297 RMK A01 T00891030  RH  043%=      5-min Rain = 0
KFR1 181230Z 23016KT 09/M03 A297 RMK A01 T00891030  RH  043%=      5-min Rain = 0
KFR1 181231Z 23017KT 09/M03 A297 RMK A01 T00881030  RH  043%=      5-min Rain = 0
KFR1 181232Z 23016KT 09/M03 A297 RMK A01 T00881030  RH  043%=      5-min Rain = 0
KFR1 181233Z 23015KT 09/M03 A297 RMK A01 T00891030  RH  043%=      5-min Rain = 0
KFR1 181234Z 23014KT 09/M03 A297 RMK A01 T00891030  RH  043%=      5-min Rain = 0
KFR1 181235Z 23013KT 09/M03 A297 RMK A01 T00881029  RH  043%=      5-min Rain = 0
KFR1 181236Z 23014KT 09/M03 A297 RMK A01 T00881029  RH  044%=      5-min Rain = 0
KFR1 181237Z 22013KT 09/M03 A297 RMK A01 T00881029  RH  044%=      5-min Rain = 0
KFR1 181238Z 22014KT 09/M03 A297 RMK A01 T00891028  RH  044%=      5-min Rain = 0
KFR1 181239Z 22015KT 09/M03 A297 RMK A01 T00891028  RH  044%=      5-min Rain = 0
KFR1 181240Z 22015KT 09/M03 A297 RMK A01 T00901027  RH  044%=      5-min Rain = 0
KFR1 181241Z 22015KT 09/M03 A297 RMK A01 T00911027  RH  044%=      5-min Rain = 0
KFR1 181242Z 22016KT 09/M03 A297 RMK A01 T00911027  RH  043%=      5-min Rain = 0
KFR1 181243Z 22017KT 09/M03 A297 RMK A01 T00911028  RH  043%=      5-min Rain = 0
KFR1 181244Z 22017KT 09/M03 A297 RMK A01 T00911028  RH  043%=      5-min Rain = 0
KFR1 181245Z 22017KT 09/M03 A297 RMK A01 T00901027  RH  044%=      5-min Rain = 0
KFR1 181246Z 22017KT 09/M03 A297 RMK A01 T00891027  RH  044%=      5-min Rain = 0
KFR1 181247Z 22018KT 09/M03 A2969 RMK A01 T00891027  RH  044%=      5-min Rain = 0
KFR1 181248Z 22017KT 09/M03 A2969 RMK A01 T00901027  RH  044%=      5-min Rain = 0
KFR1 181249Z 22016KT 09/M03 A2969 RMK A01 T00901027  RH  044%=      5-min Rain = 0
KFR1 181250Z 22015KT 09/M03 A2969 RMK A01 T00901027  RH  044%=      5-min Rain = 0
KFR1 181251Z 22016KT 09/M03 A2969 RMK A01 T00891027  RH  044%=      5-min Rain = 0
KFR1 181252Z 22015KT 09/M03 A2969 RMK A01 T00891027  RH  044%=      5-min Rain = 0
KFR1 181253Z 22016KT 09/M03 A2969 RMK A01 T00891027  RH  044%=      5-min Rain = 0
KFR1 181254Z 22015KT 09/M03 A2969 RMK A01 T00901026  RH  044%=      5-min Rain = 0
KFR1 181255Z 22017KT 09/M03 A2969 RMK A01 T00891027  RH  044%=      5-min Rain = 0
KFR1 181256Z 22017KT 09/M03 A2969 RMK A01 T00901026  RH  044%=      5-min Rain = 0
KFR1 181257Z 22018KT 09/M03 A2969 RMK A01 T00901026  RH  044%=      5-min Rain = 0
KFR1 181258Z 22017KT 09/M03 A2969 RMK A01 T00911025  RH  044%=      5-min Rain = 0
KFR1 181259Z 22017KT 09/M03 A2969 RMK A01 T00911025  RH  044%=      5-min Rain = 0
KFR1 181300Z 22017KT 09/M03 A2969 RMK A01 T00911025  RH  044%=      5-min Rain = 0
KFR1 181301Z 22017KT 09/M03 A2969 RMK A01 T00911025  RH  044%=      5-min Rain = 0
KFR1 181302Z 22018G23KT 09/M03 A2969 RMK A01 T00911025  RH  044%=      5-min Rain = 0
KFR1 181303Z 22019KT 09/M03 A297 RMK A01 T00921025  RH  044%=      5-min Rain = 0
KFR1 181304Z 22017KT 09/M02 A297 RMK A01 T00921024  RH  044%=      5-min Rain = 0
KFR1 181305Z 22016G21KT 09/M02 A297 RMK A01 T00921024  RH  044%=      5-min Rain = 0
KFR1 181306Z 22017KT 09/M02 A297 RMK A01 T00921024  RH  044%=      5-min Rain = 0
KFR1 181307Z 22017KT 09/M02 A297 RMK A01 T00911024  RH  044%=      5-min Rain = 0
KFR1 181308Z 22016KT 09/M02 A297 RMK A01 T00921024  RH  044%=      5-min Rain = 0
KFR1 181309Z 22016KT 09/M02 A297 RMK A01 T00921024  RH  044%=      5-min Rain = 0
KFR1 181310Z 22017KT 09/M02 A297 RMK A01 T00921023  RH  044%=      5-min Rain = 0
KFR1 181311Z 23015KT 09/M02 A297 RMK A01 T00921023  RH  044%=      5-min Rain = 0
KFR1 181312Z 23014KT 09/M02 A297 RMK A01 T00921024  RH  044%=      5-min Rain = 0
KFR1 181313Z 23014KT 09/M02 A297 RMK A01 T00921023  RH  044%=      5-min Rain = 0
KFR1 181314Z 23014KT 09/M02 A297 RMK A01 T00921023  RH  044%=      5-min Rain = 0
KFR1 181315Z 22014KT 09/M02 A297 RMK A01 T00921023  RH  044%=      5-min Rain = 0
KFR1 181316Z 22017KT 09/M02 A297 RMK A01 T00921023  RH  044%=      5-min Rain = 0
KFR1 181317Z 22015KT 09/M02 A297 RMK A01 T00931022  RH  044%=      5-min Rain = 0
KFR1 181318Z 23015G20KT 09/M02 A297 RMK A01 T00931023  RH  044%=      5-min Rain = 0
KFR1 181319Z 22016KT 09/M02 A297 RMK A01 T00931022  RH  045%=      5-min Rain = 0
KFR1 181320Z 22012KT 09/M02 A297 RMK A01 T00921022  RH  045%=      5-min Rain = 0
KFR1 181321Z 22018KT 09/M02 A297 RMK A01 T00921022  RH  045%=      5-min Rain = 0
KFR1 181322Z 23016G21KT 09/M02 A297 RMK A01 T00931022  RH  045%=      5-min Rain = 0
KFR1 181323Z 23016KT 09/M02 A297 RMK A01 T00941022  RH  044%=      5-min Rain = 0
KFR1 181324Z 23015KT 09/M02 A297 RMK A01 T00941022  RH  044%=      5-min Rain = 0
KFR1 181325Z 22014KT 09/M02 A297 RMK A01 T00941021  RH  044%=      5-min Rain = 0
KFR1 181326Z 22017G22KT 09/M02 A297 RMK A01 T00931021  RH  045%=      5-min Rain = 0
KFR1 181327Z 22016KT 09/M02 A297 RMK A01 T00941021  RH  045%=      5-min Rain = 0
KFR1 181328Z 22020KT 09/M02 A2969 RMK A01 T00941020  RH  045%=      5-min Rain = 0
KFR1 181329Z 22017KT 10/M02 A297 RMK A01 T00961020  RH  044%=      5-min Rain = 0
KFR1 181330Z 22019G25KT 10/M02 A297 RMK A01 T00961020  RH  044%=      5-min Rain = 0
KFR1 181331Z 22018KT 10/M02 A2969 RMK A01 T00961020  RH  044%=      5-min Rain = 0
KFR1 181332Z 23016KT 10/M02 A2969 RMK A01 T00971020  RH  044%=      5-min Rain = 0
KFR1 181333Z 22016KT 10/M02 A2969 RMK A01 T00971020  RH  044%=      5-min Rain = 0
KFR1 181334Z 22019KT 10/M02 A2969 RMK A01 T00971019  RH  044%=      5-min Rain = 0
KFR1 181335Z 22017KT 10/M02 A2969 RMK A01 T00971019  RH  044%=      5-min Rain = 0
KFR1 181336Z 22019KT 10/M02 A2969 RMK A01 T00971019  RH  044%=      5-min Rain = 0
KFR1 181337Z 22017KT 10/M02 A2969 RMK A01 T00981019  RH  044%=      5-min Rain = 0
KFR1 181338Z 23016G22KT 10/M02 A2969 RMK A01 T00981019  RH  044%=      5-min Rain = 0
KFR1 181339Z 23017KT 10/M02 A2969 RMK A01 T00971019  RH  044%=      5-min Rain = 0
KFR1 181340Z 22016KT 10/M02 A2969 RMK A01 T00971018  RH  044%=      5-min Rain = 0
KFR1 181341Z 22019KT 10/M02 A2969 RMK A01 T00981018  RH  044%=      5-min Rain = 0
KFR1 181342Z 22016KT 10/M02 A2969 RMK A01 T00981018  RH  044%=      5-min Rain = 0
KFR1 181343Z 22017KT 10/M02 A2969 RMK A01 T00981018  RH  044%=      5-min Rain = 0
KFR1 181344Z 23015KT 10/M02 A2969 RMK A01 T00991017  RH  044%=      5-min Rain = 0
KFR1 181345Z 23016KT 10/M02 A2969 RMK A01 T00981017  RH  044%=      5-min Rain = 0
KFR1 181346Z 23017G22KT 10/M02 A2969 RMK A01 T00981017  RH  044%=      5-min Rain = 0
KFR1 181347Z 22017G22KT 10/M02 A2969 RMK A01 T00991016  RH  044%=      5-min Rain = 0
KFR1 181348Z 23019KT 10/M02 A2969 RMK A01 T01001016  RH  044%=      5-min Rain = 0
KFR1 181349Z 23017KT 10/M02 A2969 RMK A01 T01011016  RH  044%=      5-min Rain = 0
KFR1 181350Z 22021KT 10/M02 A2969 RMK A01 T01011015  RH  044%=      5-min Rain = 0
KFR1 181351Z 22020KT 10/M01 A2969 RMK A01 T01021014  RH  044%=      5-min Rain = 0
KFR1 181352Z 23019KT 10/M01 A2969 RMK A01 T01031014  RH  044%=      5-min Rain = 0
KFR1 181353Z 23019KT 10/M01 A2969 RMK A01 T01031014  RH  044%=      5-min Rain = 0
KFR1 181354Z 23017KT 10/M01 A2969 RMK A01 T01031014  RH  044%=      5-min Rain = 0
KFR1 181355Z 22016KT 10/M01 A2969 RMK A01 T01031014  RH  044%=      5-min Rain = 0
KFR1 181356Z 23020KT 10/M01 A2969 RMK A01 T01031014  RH  044%=      5-min Rain = 0
KFR1 181357Z 23020KT 10/M01 A2969 RMK A01 T01031013  RH  044%=      5-min Rain = 0
KFR1 181358Z 23021KT 10/M01 A2969 RMK A01 T01041012  RH  044%=      5-min Rain = 0
KFR1 181359Z 23020KT 10/M01 A2969 RMK A01 T01041012  RH  044%=      5-min Rain = 0
KFR1 181400Z 23019KT 11/M01 A2969 RMK A01 T01051011  RH  044%=      5-min Rain = 0
KFR1 181401Z 23019KT 11/M01 A2969 RMK A01 T01051011  RH  044%=      5-min Rain = 0
KFR1 181402Z 23020G25KT 11/M01 A2969 RMK A01 T01051011  RH  044%=      5-min Rain = 0
KFR1 181403Z 23020KT 11/M01 A2969 RMK A01 T01051011  RH  045%=      5-min Rain = 0
KFR1 181404Z 22016KT 11/M01 A2969 RMK A01 T01051011  RH  045%=      5-min Rain = 0
KFR1 181405Z 23018KT 10/M01 A2969 RMK A01 T01041010  RH  045%=      5-min Rain = 0
KFR1 181406Z 23016KT 11/M01 A2969 RMK A01 T01051010  RH  045%=      5-min Rain = 0
KFR1 181407Z 23019KT 11/M01 A2969 RMK A01 T01051010  RH  045%=      5-min Rain = 0
KFR1 181408Z 23019KT 11/M01 A2969 RMK A01 T01051009  RH  045%=      5-min Rain = 0
KFR1 181409Z 23019KT 11/M01 A2969 RMK A01 T01051009  RH  045%=      5-min Rain = 0
KFR1 181410Z 23018KT 11/M01 A2969 RMK A01 T01061009  RH  045%=      5-min Rain = 0
KFR1 181411Z 22016KT 11/M01 A2969 RMK A01 T01061009  RH  045%=      5-min Rain = 0
KFR1 181412Z 22018KT 11/M01 A2969 RMK A01 T01051009  RH  045%=      5-min Rain = 0
KFR1 181413Z 22017KT 11/M01 A2969 RMK A01 T01051008  RH  045%=      5-min Rain = 0
KFR1 181414Z 22016KT 10/M01 A2969 RMK A01 T01041009  RH  045%=      5-min Rain = 0
KFR1 181415Z 22017KT 10/M01 A2968 RMK A01 T01041009  RH  045%=      5-min Rain = 0
KFR1 181416Z 21016KT 10/M01 A2968 RMK A01 T01041009  RH  045%=      5-min Rain = 0
KFR1 181417Z 22014KT 10/M01 A2968 RMK A01 T01021010  RH  046%=      5-min Rain = 0
KFR1 181418Z 21015KT 10/M01 A2968 RMK A01 T01011011  RH  046%=      5-min Rain = 0
KFR1 181419Z 22016KT 10/M01 A2968 RMK A01 T00991011  RH  046%=      5-min Rain = 0
KFR1 181420Z 22015KT 10/M01 A2968 RMK A01 T00981011  RH  046%=      5-min Rain = 0
KFR1 181421Z 22014KT 10/M01 A2968 RMK A01 T00981011  RH  047%=      5-min Rain = 0
KFR1 181422Z 22015KT 10/M01 A2968 RMK A01 T00981011  RH  047%=      5-min Rain = 0
KFR1 181423Z 22017KT 10/M01 A2968 RMK A01 T00971011  RH  047%=      5-min Rain = 0
KFR1 181424Z 21017KT 10/M01 A2968 RMK A01 T00971011  RH  047%=      5-min Rain = 0
KFR1 181425Z 21017KT 10/M01 A2968 RMK A01 T00981011  RH  047%=      5-min Rain = 0
KFR1 181426Z 21017KT 10/M01 A2968 RMK A01 T00991010  RH  047%=      5-min Rain = 0
KFR1 181427Z 22018KT 10/M01 A2968 RMK A01 T00981011  RH  046%=      5-min Rain = 0
KFR1 181428Z 22017KT 10/M01 A2968 RMK A01 T00991010  RH  047%=      5-min Rain = 0
KFR1 181429Z 22017KT 10/M01 A2968 RMK A01 T00991010  RH  046%=      5-min Rain = 0
KFR1 181430Z 22016KT 10/M01 A2968 RMK A01 T00991010  RH  046%=      5-min Rain = 0
KFR1 181431Z 22018KT 10/M01 A2968 RMK A01 T00991010  RH  047%=      5-min Rain = 0
KFR1 181432Z 21017KT 10/M01 A2968 RMK A01 T01001010  RH  047%=      5-min Rain = 0
KFR1 181433Z 22019KT 10/M01 A2968 RMK A01 T00991010  RH  046%=      5-min Rain = 0
KFR1 181434Z 22018KT 10/M01 A2968 RMK A01 T01001010  RH  046%=      5-min Rain = 0
KFR1 181435Z 21018KT 10/M01 A2968 RMK A01 T01001010  RH  046%=      5-min Rain = 0
KFR1 181436Z 22016KT 10/M01 A2968 RMK A01 T01001010  RH  046%=      5-min Rain = 0
KFR1 181437Z 22015KT 10/M01 A2968 RMK A01 T00991010  RH  047%=      5-min Rain = 0
KFR1 181438Z 21017KT 10/M01 A2968 RMK A01 T00981010  RH  047%=      5-min Rain = 0
KFR1 181439Z 21018KT 10/M01 A2968 RMK A01 T00991010  RH  047%=      5-min Rain = 0
KFR1 181440Z 22019KT 10/M01 A2968 RMK A01 T00991010  RH  047%=      5-min Rain = 0
KFR1 181441Z 22017KT 10/M01 A2968 RMK A01 T00991009  RH  047%=      5-min Rain = 0
KFR1 181442Z 22016KT 10/M01 A2968 RMK A01 T01001009  RH  047%=      5-min Rain = 0
KFR1 181443Z 22017KT 10/M01 A2968 RMK A01 T01001008  RH  047%=      5-min Rain = 0
KFR1 181444Z 22016KT 10/M01 A2968 RMK A01 T01011008  RH  047%=      5-min Rain = 0
KFR1 181445Z 22016KT 10/M01 A2968 RMK A01 T01011008  RH  047%=      5-min Rain = 0
KFR1 181446Z 22015G20KT 10/M01 A2968 RMK A01 T01011008  RH  047%=      5-min Rain = 0
KFR1 181447Z 22016G21KT 10/M01 A2968 RMK A01 T01011008  RH  047%=      5-min Rain = 0
KFR1 181448Z 23015KT 10/M01 A2968 RMK A01 T01011008  RH  047%=      5-min Rain = 0
KFR1 181449Z 22016KT 10/M01 A2968 RMK A01 T01011008  RH  047%=      5-min Rain = 0
KFR1 181450Z 22016KT 10/M01 A2968 RMK A01 T01011008  RH  047%=      5-min Rain = 0
KFR1 181451Z 22016KT 10/M01 A2968 RMK A01 T01011008  RH  047%=      5-min Rain = 0
KFR1 181452Z 22017KT 10/M01 A2968 RMK A01 T01021007  RH  047%=      5-min Rain = 0
KFR1 181453Z 22016KT 10/M01 A2968 RMK A01 T01021007  RH  047%=      5-min Rain = 0
KFR1 181454Z 22017KT 10/M01 A2968 RMK A01 T01021007  RH  047%=      5-min Rain = 0
KFR1 181455Z 22016G21KT 10/M01 A2968 RMK A01 T01031006  RH  047%=      5-min Rain = 0
KFR1 181456Z 23016KT 10/M01 A2968 RMK A01 T01031006  RH  047%=      5-min Rain = 0
KFR1 181457Z 22017KT 10/M01 A2967 RMK A01 T01031006  RH  047%=      5-min Rain = 0
KFR1 181458Z 22017KT 10/M01 A2967 RMK A01 T01031006  RH  047%=      5-min Rain = 0
KFR1 181459Z 22015KT 10/M01 A2967 RMK A01 T01041006  RH  047%=      5-min Rain = 0
KFR1 181500Z 22015KT 10/M01 A2967 RMK A01 T01041006  RH  047%=      5-min Rain = 0
KFR1 181501Z 22017KT 10/M01 A2967 RMK A01 T01041005  RH  047%=      5-min Rain = 0
KFR1 181502Z 22016KT 10/M01 A2967 RMK A01 T01041005  RH  047%=      5-min Rain = 0
KFR1 181503Z 23015KT 10/M01 A2967 RMK A01 T01041005  RH  047%=      5-min Rain = 0
KFR1 181504Z 22016KT 10/M01 A2967 RMK A01 T01041005  RH  047%=      5-min Rain = 0
KFR1 181505Z 23018G23KT 11/M00 A2967 RMK A01 T01051004  RH  047%=      5-min Rain = 0
KFR1 181506Z 23017KT 11/M00 A2967 RMK A01 T01061004  RH  047%=      5-min Rain = 0
KFR1 181507Z 23019KT 11/M00 A2967 RMK A01 T01071003  RH  046%=      5-min Rain = 0
KFR1 181508Z 23019G24KT 11/M00 A2967 RMK A01 T01081003  RH  046%=      5-min Rain = 0
KFR1 181509Z 23022G28KT 11/M00 A2967 RMK A01 T01091002  RH  046%=      5-min Rain = 0
KFR1 181510Z 23021KT 11/M00 A2967 RMK A01 T01111001  RH  046%=      5-min Rain = 0
KFR1 181511Z 23021G26KT 11/M00 A2967 RMK A01 T01111001  RH  046%=      5-min Rain = 0
KFR1 181512Z 23024G31KT 11/M00 A2966 RMK A01 T01111001  RH  046%=      5-min Rain = 0
KFR1 181513Z 23023G29KT 11/00 A2967 RMK A01 T01130000  RH  046%=      5-min Rain = 0
KFR1 181514Z 23021G26KT 11/00 A2967 RMK A01 T011200-0  RH  046%=      5-min Rain = 0
KFR1 181515Z 23024KT 11/00 A2967 RMK A01 T01130002  RH  046%=      5-min Rain = 0
KFR1 181516Z 23018G23KT 12/00 A2967 RMK A01 T01150001  RH  046%=      5-min Rain = 0
KFR1 181517Z 24018G23KT 11/00 A2967 RMK A01 T01140001  RH  046%=      5-min Rain = 0
KFR1 181518Z 23015G21KT 11/00 A2967 RMK A01 T01140002  RH  046%=      5-min Rain = 0
KFR1 181519Z 23020KT 11/00 A2967 RMK A01 T01140002  RH  046%=      5-min Rain = 0
KFR1 181520Z 24020KT 12/00 A2967 RMK A01 T01150003  RH  046%=      5-min Rain = 0
KFR1 181521Z 24020G26KT 12/00 A2967 RMK A01 T01160003  RH  046%=      5-min Rain = 0
KFR1 181522Z 24021KT 12/00 A2967 RMK A01 T01170004  RH  046%=      5-min Rain = 0
KFR1 181523Z 24021KT 12/01 A2967 RMK A01 T01180005  RH  046%=      5-min Rain = 0
KFR1 181524Z 23020G25KT 12/01 A2967 RMK A01 T01190006  RH  046%=      5-min Rain = 0
KFR1 181525Z 24018KT 12/01 A2967 RMK A01 T01190005  RH  046%=      5-min Rain = 0
KFR1 181526Z 24020KT 12/01 A2967 RMK A01 T01190006  RH  046%=      5-min Rain = 0
KFR1 181527Z 24019G24KT 12/01 A2967 RMK A01 T01200007  RH  046%=      5-min Rain = 0
KFR1 181528Z 24017KT 12/01 A2967 RMK A01 T01200007  RH  046%=      5-min Rain = 0
KFR1 181529Z 24017KT 12/01 A2967 RMK A01 T01200007  RH  046%=      5-min Rain = 0
KFR1 181530Z 24019G25KT 12/01 A2967 RMK A01 T01200007  RH  046%=      5-min Rain = 0
KFR1 181531Z 24019KT 12/01 A2967 RMK A01 T01210007  RH  046%=      5-min Rain = 0
KFR1 181532Z 24020KT 12/01 A2967 RMK A01 T01210007  RH  046%=      5-min Rain = 0
KFR1 181533Z 23017KT 12/01 A2967 RMK A01 T01210007  RH  046%=      5-min Rain = 0
KFR1 181534Z 24016KT 12/01 A2967 RMK A01 T01210008  RH  046%=      5-min Rain = 0
KFR1 181535Z 24015KT 12/01 A2967 RMK A01 T01200008  RH  046%=      5-min Rain = 0
KFR1 181536Z 24017KT 12/01 A2967 RMK A01 T01200008  RH  046%=      5-min Rain = 0
KFR1 181537Z 24020G26KT 12/01 A2966 RMK A01 T01210009  RH  046%=      5-min Rain = 0
KFR1 181538Z 23019G25KT 12/01 A2966 RMK A01 T01220010  RH  046%=      5-min Rain = 0
KFR1 181539Z 23019KT 12/01 A2966 RMK A01 T01230010  RH  046%=      5-min Rain = 0
KFR1 181540Z 24022G27KT 12/01 A2966 RMK A01 T01230011  RH  046%=      5-min Rain = 0
KFR1 181541Z 23018G28KT 12/01 A2966 RMK A01 T01240012  RH  046%=      5-min Rain = 0
KFR1 181542Z 24022G29KT 12/01 A2966 RMK A01 T01240012  RH  046%=      5-min Rain = 0
KFR1 181543Z 23021KT 13/01 A2966 RMK A01 T01250013  RH  046%=      5-min Rain = 0
KFR1 181544Z 24022KT 13/01 A2966 RMK A01 T01250013  RH  046%=      5-min Rain = 0
KFR1 181545Z 24021G28KT 13/01 A2966 RMK A01 T01260013  RH  046%=      5-min Rain = 0
KFR1 181546Z 23019G25KT 13/01 A2966 RMK A01 T01260013  RH  046%=      5-min Rain = 0
KFR1 181547Z 23023KT 13/01 A2965 RMK A01 T01260013  RH  046%=      5-min Rain = 0
KFR1 181548Z 23019KT 13/01 A2965 RMK A01 T01260013  RH  046%=      5-min Rain = 0
KFR1 181549Z 23020KT 13/01 A2965 RMK A01 T01260013  RH  046%=      5-min Rain = 0
KFR1 181550Z 24022KT 13/01 A2965 RMK A01 T01260014  RH  046%=      5-min Rain = 0
KFR1 181551Z 24022KT 13/01 A2966 RMK A01 T01270014  RH  046%=      5-min Rain = 0
KFR1 181552Z 23022KT 13/01 A2965 RMK A01 T01270014  RH  046%=      5-min Rain = 0
KFR1 181553Z 23020KT 13/02 A2965 RMK A01 T01280015  RH  046%=      5-min Rain = 0
KFR1 181554Z 23020G25KT 13/02 A2965 RMK A01 T01280015  RH  046%=      5-min Rain = 0
KFR1 181555Z 23021KT 13/02 A2965 RMK A01 T01280015  RH  046%=      5-min Rain = 0
KFR1 181556Z 22022G27KT 13/02 A2965 RMK A01 T01290015  RH  046%=      5-min Rain = 0
KFR1 181557Z 23022KT 13/02 A2965 RMK A01 T01290015  RH  046%=      5-min Rain = 0
KFR1 181558Z 23022G28KT 13/02 A2964 RMK A01 T01290015  RH  046%=      5-min Rain = 0
KFR1 181559Z 23026KT 13/02 A2964 RMK A01 T01290016  RH  046%=      5-min Rain = 0
KFR1 181600Z 23021KT 13/02 A2965 RMK A01 T01290016  RH  046%=      5-min Rain = 0
KFR1 181601Z 24022G27KT 13/02 A2965 RMK A01 T01290016  RH  046%=      5-min Rain = 0
KFR1 181602Z 24021G26KT 13/02 A2965 RMK A01 T01300017  RH  046%=      5-min Rain = 0
KFR1 181603Z 23022KT 13/02 A2964 RMK A01 T01300017  RH  046%=      5-min Rain = 0
KFR1 181604Z 24020KT 13/02 A2965 RMK A01 T01300017  RH  046%=      5-min Rain = 0
KFR1 181605Z 25022G29KT 13/02 A2965 RMK A01 T01300017  RH  046%=      5-min Rain = 0
KFR1 181606Z 24022G28KT 13/02 A2965 RMK A01 T01300017  RH  046%=      5-min Rain = 0
KFR1 181607Z 24022KT 13/02 A2965 RMK A01 T01300017  RH  046%=      5-min Rain = 0
KFR1 181608Z 24022KT 13/02 A2965 RMK A01 T01300018  RH  046%=      5-min Rain = 0
KFR1 181609Z 24021G26KT 13/02 A2965 RMK A01 T01300018  RH  047%=      5-min Rain = 0
KFR1 181610Z 24021KT 13/02 A2965 RMK A01 T01300019  RH  047%=      5-min Rain = 0
KFR1 181611Z 24022KT 13/02 A2965 RMK A01 T01290018  RH  047%=      5-min Rain = 0
KFR1 181612Z 24023G30KT 13/02 A2965 RMK A01 T01300019  RH  047%=      5-min Rain = 0
KFR1 181613Z 24023KT 13/02 A2965 RMK A01 T01290019  RH  047%=      5-min Rain = 0
KFR1 181614Z 24021KT 13/02 A2965 RMK A01 T01290019  RH  047%=      5-min Rain = 0
KFR1 181615Z 24026G33KT 13/02 A2965 RMK A01 T01290019  RH  047%=      5-min Rain = 0
KFR1 181616Z 24025G31KT 13/02 A2965 RMK A01 T01290019  RH  047%=      5-min Rain = 0
KFR1 181617Z 24019KT 13/02 A2965 RMK A01 T01290019  RH  047%=      5-min Rain = 0
KFR1 181618Z 24025KT 13/02 A2965 RMK A01 T01300020  RH  047%=      5-min Rain = 0
KFR1 181619Z 25022KT 13/02 A2965 RMK A01 T01290020  RH  047%=      5-min Rain = 0
KFR1 181620Z 24022KT 13/02 A2965 RMK A01 T01290020  RH  048%=      5-min Rain = 0
KFR1 181621Z 25020KT 13/02 A2965 RMK A01 T01280020  RH  048%=      5-min Rain = 0
KFR1 181622Z 24022KT 13/02 A2965 RMK A01 T01280020  RH  048%=      5-min Rain = 0
KFR1 181623Z 25023KT 13/02 A2965 RMK A01 T01290021  RH  048%=      5-min Rain = 0
KFR1 181624Z 24020KT 13/02 A2965 RMK A01 T01290021  RH  048%=      5-min Rain = 0
KFR1 181625Z 25021G27KT 13/02 A2965 RMK A01 T01290021  RH  048%=      5-min Rain = 0
KFR1 181626Z 25018KT 13/02 A2965 RMK A01 T01290021  RH  048%=      5-min Rain = 0
KFR1 181627Z 24020G26KT 13/02 A2965 RMK A01 T01290021  RH  048%=      5-min Rain = 0
KFR1 181628Z 24019G25KT 13/02 A2965 RMK A01 T01290021  RH  048%=      5-min Rain = 0
KFR1 181629Z 24020G25KT 13/02 A2965 RMK A01 T01290021  RH  048%=      5-min Rain = 0
KFR1 181630Z 24023G30KT 13/02 A2965 RMK A01 T01300022  RH  048%=      5-min Rain = 0
KFR1 181631Z 24020G25KT 13/02 A2965 RMK A01 T01300022  RH  048%=      5-min Rain = 0
KFR1 181632Z 24021KT 13/02 A2965 RMK A01 T01300022  RH  048%=      5-min Rain = 0
KFR1 181633Z 24020KT 13/02 A2965 RMK A01 T01300022  RH  048%=      5-min Rain = 0
KFR1 181634Z 24025KT 13/02 A2965 RMK A01 T01300022  RH  048%=      5-min Rain = 0
KFR1 181635Z 24019G24KT 13/02 A2965 RMK A01 T01310022  RH  048%=      5-min Rain = 0
KFR1 181636Z 24017G23KT 13/02 A2965 RMK A01 T01310022  RH  048%=      5-min Rain = 0
KFR1 181637Z 24021G27KT 13/02 A2965 RMK A01 T01310022  RH  048%=      5-min Rain = 0
KFR1 181638Z 24022KT 13/02 A2965 RMK A01 T01320023  RH  048%=      5-min Rain = 0
KFR1 181639Z 23020G28KT 13/02 A2965 RMK A01 T01320022  RH  047%=      5-min Rain = 0
KFR1 181640Z 24018KT 13/02 A2965 RMK A01 T01320022  RH  047%=      5-min Rain = 0
KFR1 181641Z 24020KT 13/02 A2965 RMK A01 T01320023  RH  047%=      5-min Rain = 0
KFR1 181642Z 24018KT 13/02 A2965 RMK A01 T01320023  RH  047%=      5-min Rain = 0
KFR1 181643Z 25020G25KT 13/02 A2965 RMK A01 T01320023  RH  047%=      5-min Rain = 0
KFR1 181644Z 23021KT 13/02 A2965 RMK A01 T01320023  RH  047%=      5-min Rain = 0
KFR1 181645Z 24022G27KT 13/02 A2965 RMK A01 T01330023  RH  047%=      5-min Rain = 0
KFR1 181646Z 24021KT 13/02 A2965 RMK A01 T01330024  RH  047%=      5-min Rain = 0
KFR1 181647Z 24018G26KT 13/02 A2965 RMK A01 T01330024  RH  047%=      5-min Rain = 0
KFR1 181648Z 24019G25KT 13/02 A2965 RMK A01 T01330024  RH  048%=      5-min Rain = 0
KFR1 181649Z 24020G25KT 13/02 A2965 RMK A01 T01330024  RH  048%=      5-min Rain = 0
KFR1 181650Z 24020G25KT 13/02 A2965 RMK A01 T01330024  RH  047%=      5-min Rain = 0
KFR1 181651Z 24022G27KT 13/03 A2965 RMK A01 T01340025  RH  048%=      5-min Rain = 0
KFR1 181652Z 24023KT 13/02 A2965 RMK A01 T01330024  RH  048%=      5-min Rain = 0
KFR1 181653Z 25020G25KT 13/02 A2965 RMK A01 T01330024  RH  048%=      5-min Rain = 0
KFR1 181654Z 24018G23KT 13/03 A2965 RMK A01 T01330025  RH  048%=      5-min Rain = 0
KFR1 181655Z 24020KT 13/02 A2965 RMK A01 T01330024  RH  048%=      5-min Rain = 0
KFR1 181656Z 25019G25KT 13/03 A2965 RMK A01 T01340025  RH  048%=      5-min Rain = 0
KFR1 181657Z 24021KT 13/03 A2965 RMK A01 T01340025  RH  048%=      5-min Rain = 0
KFR1 181658Z 24020KT 14/03 A2965 RMK A01 T01350025  RH  047%=      5-min Rain = 0
KFR1 181659Z 25018G24KT 14/03 A2965 RMK A01 T01350025  RH  047%=      5-min Rain = 0
KFR1 181700Z 25021KT 14/03 A2965 RMK A01 T01350025  RH  047%=      5-min Rain = 0
KFR1 181701Z 24017G26KT 13/03 A2965 RMK A01 T01340025  RH  048%=      5-min Rain = 0
KFR1 181702Z 24025G31KT 13/03 A2965 RMK A01 T01340026  RH  048%=      5-min Rain = 0
KFR1 181703Z 25026KT 14/03 A2965 RMK A01 T01350025  RH  048%=      5-min Rain = 0
KFR1 181704Z 25023G28KT 14/03 A2965 RMK A01 T01350025  RH  047%=      5-min Rain = 0
KFR1 181705Z 25020G28KT 14/03 A2965 RMK A01 T01350026  RH  047%=      5-min Rain = 0
KFR1 181706Z 25019G24KT 14/03 A2965 RMK A01 T01350027  RH  048%=      5-min Rain = 0
KFR1 181707Z 25018KT 14/03 A2965 RMK A01 T01350027  RH  048%=      5-min Rain = 0
KFR1 181708Z 25018G25KT 13/03 A2965 RMK A01 T01340027  RH  048%=      5-min Rain = 0
KFR1 181709Z 24019KT 13/03 A2965 RMK A01 T01340027  RH  048%=      5-min Rain = 0
KFR1 181710Z 24017KT 13/03 A2965 RMK A01 T01340027  RH  048%=      5-min Rain = 0
KFR1 181711Z 25018KT 13/03 A2965 RMK A01 T01340027  RH  048%=      5-min Rain = 0
KFR1 181712Z 25024KT 13/03 A2965 RMK A01 T01340026  RH  048%=      5-min Rain = 0
KFR1 181713Z 24021G28KT 13/03 A2965 RMK A01 T01340027  RH  048%=      5-min Rain = 0
KFR1 181714Z 24022G28KT 13/03 A2965 RMK A01 T01340026  RH  048%=      5-min Rain = 0
KFR1 181715Z 25021KT 14/03 A2965 RMK A01 T01350026  RH  048%=      5-min Rain = 0
KFR1 181716Z 24022G27KT 14/03 A2965 RMK A01 T01350026  RH  048%=      5-min Rain = 0
KFR1 181717Z 24019G25KT 14/03 A2965 RMK A01 T01350026  RH  048%=      5-min Rain = 0
KFR1 181718Z 25020G26KT 14/03 A2965 RMK A01 T01350027  RH  048%=      5-min Rain = 0
KFR1 181719Z 25018KT 14/03 A2965 RMK A01 T01350026  RH  048%=      5-min Rain = 0
KFR1 181720Z 24019KT 14/03 A2965 RMK A01 T01350027  RH  048%=      5-min Rain = 0
KFR1 181721Z 24018KT 14/03 A2965 RMK A01 T01350027  RH  048%=      5-min Rain = 0
KFR1 181722Z 24018KT 14/03 A2965 RMK A01 T01360027  RH  048%=      5-min Rain = 0
KFR1 181723Z 25021KT 14/03 A2965 RMK A01 T01360027  RH  048%=      5-min Rain = 0
KFR1 181724Z 25021KT 14/03 A2965 RMK A01 T01360027  RH  048%=      5-min Rain = 0
KFR1 181725Z 24020KT 14/03 A2965 RMK A01 T01360027  RH  048%=      5-min Rain = 0
KFR1 181726Z 24020KT 14/03 A2964 RMK A01 T01370027  RH  048%=      5-min Rain = 0
KFR1 181727Z 25017G23KT 14/03 A2965 RMK A01 T01370027  RH  048%=      5-min Rain = 0
KFR1 181728Z 25018KT 14/03 A2965 RMK A01 T01360027  RH  048%=      5-min Rain = 0
KFR1 181729Z 24018G23KT 14/03 A2965 RMK A01 T01360027  RH  048%=      5-min Rain = 0
KFR1 181730Z 25017KT 14/03 A2965 RMK A01 T01360027  RH  048%=      5-min Rain = 0
KFR1 181731Z 24018G23KT 14/03 A2965 RMK A01 T01370027  RH  047%=      5-min Rain = 0
KFR1 181732Z 24016KT 14/03 A2965 RMK A01 T01370027  RH  047%=      5-min Rain = 0
KFR1 181733Z 24018G23KT 14/03 A2965 RMK A01 T01380027  RH  047%=      5-min Rain = 0
KFR1 181734Z 24018KT 14/03 A2964 RMK A01 T01380027  RH  047%=      5-min Rain = 0
KFR1 181735Z 24018KT 14/03 A2964 RMK A01 T01380027  RH  047%=      5-min Rain = 0
KFR1 181736Z 23016KT 14/03 A2964 RMK A01 T01390027  RH  047%=      5-min Rain = 0
KFR1 181737Z 24018KT 14/03 A2964 RMK A01 T01390027  RH  047%=      5-min Rain = 0
KFR1 181738Z 24021KT 14/03 A2964 RMK A01 T01400027  RH  047%=      5-min Rain = 0
KFR1 181739Z 24020G25KT 14/03 A2964 RMK A01 T01400027  RH  046%=      5-min Rain = 0
KFR1 181740Z 25021KT 14/03 A2964 RMK A01 T01410027  RH  046%=      5-min Rain = 0
KFR1 181741Z 25021KT 14/03 A2964 RMK A01 T01410027  RH  046%=      5-min Rain = 0
KFR1 181742Z 24018KT 14/03 A2964 RMK A01 T01420027  RH  046%=      5-min Rain = 0
KFR1 181743Z 24017KT 14/03 A2964 RMK A01 T01420028  RH  046%=      5-min Rain = 0
KFR1 181744Z 24017KT 14/03 A2964 RMK A01 T01420027  RH  046%=      5-min Rain = 0
KFR1 181745Z 24018KT 14/03 A2964 RMK A01 T01420027  RH  046%=      5-min Rain = 0
KFR1 181746Z 24017KT 14/03 A2964 RMK A01 T01420027  RH  046%=      5-min Rain = 0
KFR1 181747Z 23018KT 14/03 A2963 RMK A01 T01430027  RH  046%=      5-min Rain = 0
KFR1 181748Z 25018KT 14/03 A2963 RMK A01 T01430027  RH  046%=      5-min Rain = 0
KFR1 181749Z 24020KT 14/03 A2963 RMK A01 T01420027  RH  046%=      5-min Rain = 0
KFR1 181750Z 24019KT 14/03 A2963 RMK A01 T01430027  RH  046%=      5-min Rain = 0
KFR1 181751Z 25018KT 14/03 A2964 RMK A01 T01430027  RH  046%=      5-min Rain = 0
KFR1 181752Z 25019KT 14/03 A2964 RMK A01 T01420028  RH  046%=      5-min Rain = 0
KFR1 181753Z 25017G22KT 14/03 A2964 RMK A01 T01420028  RH  046%=      5-min Rain = 0
KFR1 181754Z 24020KT 14/03 A2964 RMK A01 T01410028  RH  046%=      5-min Rain = 0
KFR1 181755Z 24017KT 14/03 A2964 RMK A01 T01410027  RH  046%=      5-min Rain = 0
KFR1 181756Z 25016KT 14/03 A2964 RMK A01 T01420027  RH  046%=      5-min Rain = 0
KFR1 181757Z 25017KT 14/03 A2964 RMK A01 T01420027  RH  046%=      5-min Rain = 0
KFR1 181758Z 25014KT 14/03 A2963 RMK A01 T01410026  RH  046%=      5-min Rain = 0
KFR1 181759Z 25017KT 14/03 A2963 RMK A01 T01420027  RH  046%=      5-min Rain = 0
KFR1 181800Z 25016KT 14/03 A2963 RMK A01 T01420027  RH  046%=      5-min Rain = 0
KFR1 181801Z 25015KT 14/03 A2963 RMK A01 T01420027  RH  046%=      5-min Rain = 0
KFR1 181802Z 25013KT 14/03 A2963 RMK A01 T01420026  RH  046%=      5-min Rain = 0
KFR1 181803Z 25011KT 14/03 A2963 RMK A01 T01420027  RH  046%=      5-min Rain = 0
KFR1 181804Z 25011KT 14/03 A2963 RMK A01 T01420028  RH  046%=      5-min Rain = 0
KFR1 181805Z 25014KT 14/03 A2963 RMK A01 T01420028  RH  046%=      5-min Rain = 0
KFR1 181806Z 25015KT 14/03 A2963 RMK A01 T01430027  RH  046%=      5-min Rain = 0
KFR1 181807Z 25014KT 14/03 A2963 RMK A01 T01430028  RH  046%=      5-min Rain = 0
KFR1 181808Z 25016KT 14/03 A2963 RMK A01 T01440027  RH  045%=      5-min Rain = 0
KFR1 181809Z 25015G20KT 15/03 A2963 RMK A01 T01450027  RH  045%=      5-min Rain = 0
KFR1 181810Z 26013KT 15/03 A2963 RMK A01 T01450027  RH  045%=      5-min Rain = 0
KFR1 181811Z 25011KT 15/03 A2963 RMK A01 T01460027  RH  045%=      5-min Rain = 0
KFR1 181812Z 26012KT 15/03 A2963 RMK A01 T01470028  RH  045%=      5-min Rain = 0
KFR1 181813Z 25010KT 15/03 A2963 RMK A01 T01470028  RH  045%=      5-min Rain = 0
KFR1 181814Z 26011KT 15/03 A2963 RMK A01 T01470028  RH  045%=      5-min Rain = 0
KFR1 181815Z 26009KT 15/03 A2963 RMK A01 T01470029  RH  045%=      5-min Rain = 0
KFR1 181816Z 25008KT 15/03 A2963 RMK A01 T01470028  RH  045%=      5-min Rain = 0
KFR1 181817Z 25011KT 15/03 A2963 RMK A01 T01470028  RH  044%=      5-min Rain = 0
KFR1 181818Z 25011KT 15/03 A2963 RMK A01 T01480026  RH  044%=      5-min Rain = 0
KFR1 181819Z 26012KT 15/03 A2963 RMK A01 T01490027  RH  044%=      5-min Rain = 0
KFR1 181820Z 26013KT 15/03 A2963 RMK A01 T01480027  RH  044%=      5-min Rain = 0
KFR1 181821Z 26015KT 15/03 A2963 RMK A01 T01470025  RH  044%=      5-min Rain = 0
KFR1 181822Z 26015KT 15/02 A2963 RMK A01 T01470023  RH  043%=      5-min Rain = 0
KFR1 181823Z 26012G17KT 15/02 A2963 RMK A01 T01470023  RH  043%=      5-min Rain = 0
KFR1 181824Z 25012KT 15/02 A2963 RMK A01 T01470023  RH  043%=      5-min Rain = 0
KFR1 181825Z 26013KT 15/02 A2963 RMK A01 T01470022  RH  043%=      5-min Rain = 0
KFR1 181826Z 26014G19KT 15/02 A2962 RMK A01 T01470022  RH  043%=      5-min Rain = 0
KFR1 181827Z 25013KT 15/02 A2962 RMK A01 T01460022  RH  043%=      5-min Rain = 0
KFR1 181828Z 25015KT 15/02 A2962 RMK A01 T01450022  RH  043%=      5-min Rain = 0
KFR1 181829Z 26015KT 15/02 A2962 RMK A01 T01450022  RH  043%=      5-min Rain = 0
KFR1 181830Z 26016KT 14/02 A2962 RMK A01 T01440022  RH  044%=      5-min Rain = 0
KFR1 181831Z 26019G24KT 14/02 A2962 RMK A01 T01440021  RH  044%=      5-min Rain = 0
KFR1 181832Z 26015G20KT 14/02 A2962 RMK A01 T01440021  RH  044%=      5-min Rain = 0
KFR1 181833Z 26018G23KT 14/02 A2962 RMK A01 T01440022  RH  044%=      5-min Rain = 0
KFR1 181834Z 26020KT 14/02 A2961 RMK A01 T01440021  RH  043%=      5-min Rain = 0
KFR1 181835Z 26016KT 15/02 A2961 RMK A01 T01450021  RH  043%=      5-min Rain = 0
KFR1 181836Z 26016KT 15/02 A2961 RMK A01 T01450022  RH  043%=      5-min Rain = 0
KFR1 181837Z 27015KT 15/02 A2961 RMK A01 T01460022  RH  043%=      5-min Rain = 0
KFR1 181838Z 27014KT 15/02 A2961 RMK A01 T01450021  RH  043%=      5-min Rain = 0
KFR1 181839Z 27014G19KT 15/02 A2961 RMK A01 T01450021  RH  043%=      5-min Rain = 0
KFR1 181840Z 27012KT 15/02 A2961 RMK A01 T01450022  RH  043%=      5-min Rain = 0
KFR1 181841Z 27010KT 14/02 A2961 RMK A01 T01440022  RH  044%=      5-min Rain = 0
KFR1 181842Z 27010KT 15/02 A2961 RMK A01 T01450024  RH  044%=      5-min Rain = 0
KFR1 181843Z 27011G16KT 14/02 A296 RMK A01 T01440024  RH  044%=      5-min Rain = 0
KFR1 181844Z 27012KT 14/02 A296 RMK A01 T01440021  RH  043%=      5-min Rain = 0
KFR1 181845Z 29014KT 15/02 A296 RMK A01 T01450019  RH  042%=      5-min Rain = 0
KFR1 181846Z 28017KT 15/02 A296 RMK A01 T01470018  RH  042%=      5-min Rain = 0
KFR1 181847Z 27014KT 15/02 A296 RMK A01 T01480018  RH  041%=      5-min Rain = 0
KFR1 181848Z 28017G23KT 15/02 A296 RMK A01 T01480018  RH  041%=      5-min Rain = 0
KFR1 181849Z 28016KT 15/02 A296 RMK A01 T01480016  RH  041%=      5-min Rain = 0
KFR1 181850Z 28015KT 15/02 A296 RMK A01 T01490016  RH  041%=      5-min Rain = 0
KFR1 181851Z 28015G21KT 15/02 A296 RMK A01 T01490017  RH  041%=      5-min Rain = 0
KFR1 181852Z 28015KT 15/02 A296 RMK A01 T01500017  RH  040%=      5-min Rain = 0
KFR1 181853Z 28014KT 15/02 A296 RMK A01 T01500017  RH  040%=      5-min Rain = 0
KFR1 181854Z 28012KT 15/02 A296 RMK A01 T01520017  RH  040%=      5-min Rain = 0
KFR1 181855Z 28012KT 15/02 A296 RMK A01 T01530018  RH  040%=      5-min Rain = 0
KFR1 181856Z 28012KT 15/02 A296 RMK A01 T01530019  RH  040%=      5-min Rain = 0
KFR1 181857Z 28010KT 15/02 A296 RMK A01 T01520020  RH  041%=      5-min Rain = 0
KFR1 181858Z 27013KT 15/02 A296 RMK A01 T01510020  RH  041%=      5-min Rain = 0
KFR1 181859Z 26011G19KT 15/02 A296 RMK A01 T01520018  RH  040%=      5-min Rain = 0
KFR1 181900Z 27015KT 16/02 A2959 RMK A01 T01560016  RH  039%=      5-min Rain = 0
KFR1 181901Z 27014KT 16/01 A2959 RMK A01 T01580014  RH  038%=      5-min Rain = 0
KFR1 181902Z 28013G18KT 16/02 A2959 RMK A01 T01580015  RH  038%=      5-min Rain = 0
KFR1 181903Z 29015G21KT 16/02 A2959 RMK A01 T01590015  RH  038%=      5-min Rain = 0
KFR1 181904Z 28017G22KT 16/01 A2959 RMK A01 T01600012  RH  037%=      5-min Rain = 0
KFR1 181905Z 28017G24KT 16/01 A2959 RMK A01 T01630012  RH  036%=      5-min Rain = 0
KFR1 181906Z 27018KT 17/01 A2959 RMK A01 T01650010  RH  035%=      5-min Rain = 0
KFR1 181907Z 28015G21KT 17/01 A2959 RMK A01 T01670009  RH  034%=      5-min Rain = 0
KFR1 181908Z 27015KT 17/01 A2959 RMK A01 T01680012  RH  035%=      5-min Rain = 0
KFR1 181909Z 28013KT 17/01 A2959 RMK A01 T01690014  RH  035%=      5-min Rain = 0
KFR1 181910Z 27014G19KT 17/02 A2959 RMK A01 T01680016  RH  036%=      5-min Rain = 0
KFR1 181911Z 27012KT 17/02 A2959 RMK A01 T01650016  RH  036%=      5-min Rain = 0
KFR1 181912Z 27013G18KT 16/02 A2959 RMK A01 T01640017  RH  037%=      5-min Rain = 0
KFR1 181913Z 27017G23KT 16/01 A2958 RMK A01 T01630013  RH  036%=      5-min Rain = 0
KFR1 181914Z 27018KT 16/01 A2958 RMK A01 T01610010  RH  036%=      5-min Rain = 0
KFR1 181915Z 28018G26KT 16/01 A2958 RMK A01 T01590007  RH  036%=      5-min Rain = 0
KFR1 181916Z 28019G24KT 16/01 A2958 RMK A01 T01580005  RH  035%=      5-min Rain = 0
KFR1 181917Z 28019G24KT 16/00 A2958 RMK A01 T01580002  RH  035%=      5-min Rain = 0
KFR1 181918Z 28018G23KT 16/00 A2958 RMK A01 T01570003  RH  035%=      5-min Rain = 0
KFR1 181919Z 28019G24KT 16/01 A2958 RMK A01 T01570005  RH  036%=      5-min Rain = 0
KFR1 181920Z 27018G24KT 16/01 A2958 RMK A01 T01560006  RH  036%=      5-min Rain = 0
KFR1 181921Z 27018G24KT 16/01 A2958 RMK A01 T01560008  RH  037%=      5-min Rain = 0
KFR1 181922Z 28020G27KT 15/01 A2958 RMK A01 T01540006  RH  036%=      5-min Rain = 0
KFR1 181923Z 27016KT 16/00 A2958 RMK A01 T01550003  RH  036%=      5-min Rain = 0
KFR1 181924Z 28015G20KT 15/01 A2958 RMK A01 T01540007  RH  037%=      5-min Rain = 0
KFR1 181925Z 28015G20KT 15/01 A2958 RMK A01 T01520008  RH  038%=      5-min Rain = 0
KFR1 181926Z 28016KT 15/01 A2958 RMK A01 T01520008  RH  038%=      5-min Rain = 0
KFR1 181927Z 28018G24KT 15/01 A2958 RMK A01 T01520008  RH  038%=      5-min Rain = 0
KFR1 181928Z 28019G24KT 15/01 A2958 RMK A01 T01520007  RH  037%=      5-min Rain = 0
KFR1 181929Z 27018G24KT 15/01 A2958 RMK A01 T01540007  RH  037%=      5-min Rain = 0
KFR1 181930Z 27016KT 16/01 A2958 RMK A01 T01560008  RH  037%=      5-min Rain = 0
KFR1 181931Z 27014KT 16/01 A2957 RMK A01 T01570009  RH  037%=      5-min Rain = 0
KFR1 181932Z 27013G19KT 16/01 A2957 RMK A01 T01580010  RH  036%=      5-min Rain = 0
KFR1 181933Z 27012G18KT 16/01 A2957 RMK A01 T01590011  RH  037%=      5-min Rain = 0
KFR1 181934Z 26012G17KT 16/01 A2957 RMK A01 T01590013  RH  037%=      5-min Rain = 0
KFR1 181935Z 27012KT 16/01 A2957 RMK A01 T01600013  RH  037%=      5-min Rain = 0
KFR1 181936Z 27013KT 16/01 A2957 RMK A01 T01610013  RH  037%=      5-min Rain = 0
KFR1 181937Z 27011KT 16/01 A2957 RMK A01 T01620013  RH  036%=      5-min Rain = 0
KFR1 181938Z 28017G24KT 16/01 A2957 RMK A01 T01640012  RH  036%=      5-min Rain = 0
KFR1 181939Z 27014KT 17/01 A2957 RMK A01 T01650007  RH  034%=      5-min Rain = 0
KFR1 181940Z 27012G17KT 17/01 A2957 RMK A01 T01660008  RH  034%=      5-min Rain = 0
KFR1 181941Z 27011KT 17/01 A2957 RMK A01 T01650011  RH  035%=      5-min Rain = 0
KFR1 181942Z 26012KT 16/01 A2957 RMK A01 T01640013  RH  036%=      5-min Rain = 0
KFR1 181943Z 26013KT 16/01 A2957 RMK A01 T01640010  RH  035%=      5-min Rain = 0
KFR1 181944Z 27014KT 17/01 A2957 RMK A01 T01680009  RH  034%=      5-min Rain = 0
KFR1 181945Z 26014G19KT 17/01 A2957 RMK A01 T01690008  RH  034%=      5-min Rain = 0
KFR1 181946Z 26017G24KT 17/01 A2957 RMK A01 T01690007  RH  033%=      5-min Rain = 0
KFR1 181947Z 27015G22KT 17/01 A2957 RMK A01 T01710005  RH  033%=      5-min Rain = 0
KFR1 181948Z 27013KT 17/01 A2957 RMK A01 T01720005  RH  032%=      5-min Rain = 0
KFR1 181949Z 28011KT 17/01 A2957 RMK A01 T01720007  RH  033%=      5-min Rain = 0
KFR1 181950Z 26012KT 17/01 A2957 RMK A01 T01710010  RH  034%=      5-min Rain = 0
KFR1 181951Z 28016G21KT 17/01 A2957 RMK A01 T01710009  RH  033%=      5-min Rain = 0
KFR1 181952Z 29013G18KT 17/01 A2957 RMK A01 T01700005  RH  033%=      5-min Rain = 0
KFR1 181953Z 29014KT 17/00 A2957 RMK A01 T01700003  RH  032%=      5-min Rain = 0
KFR1 181954Z 28014G21KT 17/00 A2957 RMK A01 T01710004  RH  032%=      5-min Rain = 0
KFR1 181955Z 28018G23KT 17/00 A2957 RMK A01 T01700004  RH  033%=      5-min Rain = 0
KFR1 181956Z 28018KT 17/00 A2957 RMK A01 T01700002  RH  032%=      5-min Rain = 0
KFR1 181957Z 28016KT 17/00 A2957 RMK A01 T01700001  RH  032%=      5-min Rain = 0
KFR1 181958Z 28018G24KT 17/00 A2957 RMK A01 T01710003  RH  032%=      5-min Rain = 0
KFR1 181959Z 29016G21KT 17/00 A2957 RMK A01 T01700001  RH  032%=      5-min Rain = 0
KFR1 182000Z 29013G18KT 17/00 A2957 RMK A01 T01690000  RH  032%=      5-min Rain = 0
KFR1 182001Z 29017G24KT 17/00 A2957 RMK A01 T01680001  RH  032%=      5-min Rain = 0
KFR1 182002Z 28019KT 17/M00 A2957 RMK A01 T01691001  RH  031%=      5-min Rain = 0
KFR1 182003Z 28018G23KT 17/M00 A2957 RMK A01 T01701002  RH  031%=      5-min Rain = 0
KFR1 182004Z 28020KT 17/00 A2957 RMK A01 T01700000  RH  032%=      5-min Rain = 0
KFR1 182005Z 28016KT 17/00 A2957 RMK A01 T017000-0  RH  031%=      5-min Rain = 0
KFR1 182006Z 28014G19KT 17/00 A2957 RMK A01 T01720002  RH  032%=      5-min Rain = 0
KFR1 182007Z 28017G22KT 17/00 A2957 RMK A01 T01700004  RH  032%=      5-min Rain = 0
KFR1 182008Z 28016G22KT 16/00 A2957 RMK A01 T01640002  RH  033%=      5-min Rain = 0
KFR1 182009Z 27015G20KT 16/00 A2957 RMK A01 T01620002  RH  034%=      5-min Rain = 0
KFR1 182010Z 29017KT 16/00 A2958 RMK A01 T01630002  RH  034%=      5-min Rain = 0
KFR1 182011Z 30013G18KT 16/M00 A2958 RMK A01 T01641001  RH  032%=      5-min Rain = 0
KFR1 182012Z 28014KT 17/M00 A2958 RMK A01 T01651001  RH  033%=      5-min Rain = 0
KFR1 182013Z 28014G19KT 17/M00 A2957 RMK A01 T01651002  RH  032%=      5-min Rain = 0
KFR1 182014Z 28015G21KT 16/M00 A2958 RMK A01 T01641003  RH  032%=      5-min Rain = 0
KFR1 182015Z 28017KT 16/00 A2957 RMK A01 T01640000  RH  033%=      5-min Rain = 0
KFR1 182016Z 27014KT 17/00 A2957 RMK A01 T01650001  RH  033%=      5-min Rain = 0
KFR1 182017Z 27014KT 17/00 A2957 RMK A01 T01680001  RH  032%=      5-min Rain = 0
KFR1 182018Z 28012G18KT 17/00 A2958 RMK A01 T01700001  RH  032%=      5-min Rain = 0
KFR1 182019Z 29014G20KT 17/00 A2958 RMK A01 T01710002  RH  032%=      5-min Rain = 0
KFR1 182020Z 28015KT 17/00 A2957 RMK A01 T017100-0  RH  031%=      5-min Rain = 0
KFR1 182021Z 29013G18KT 17/M00 A2957 RMK A01 T01711001  RH  031%=      5-min Rain = 0
KFR1 182022Z 28014KT 17/M00 A2957 RMK A01 T01711001  RH  031%=      5-min Rain = 0
KFR1 182023Z 28013KT 17/M00 A2957 RMK A01 T01721001  RH  031%=      5-min Rain = 0
KFR1 182024Z 29013G18KT 17/00 A2958 RMK A01 T01740000  RH  031%=      5-min Rain = 0
KFR1 182025Z 29014G19KT 18/M00 A2957 RMK A01 T01751001  RH  030%=      5-min Rain = 0
KFR1 182026Z 28013G20KT 18/M00 A2957 RMK A01 T01761001  RH  030%=      5-min Rain = 0
KFR1 182027Z 28014KT 18/M00 A2957 RMK A01 T01761001  RH  030%=      5-min Rain = 0
KFR1 182028Z 28015KT 18/M00 A2957 RMK A01 T01761001  RH  030%=      5-min Rain = 0
KFR1 182029Z 28016KT 18/M00 A2957 RMK A01 T01761002  RH  030%=      5-min Rain = 0
KFR1 182030Z 29012G17KT 18/00 A2957 RMK A01 T01760000  RH  030%=      5-min Rain = 0
KFR1 182031Z 28014G21KT 18/00 A2957 RMK A01 T01750001  RH  031%=      5-min Rain = 0
KFR1 182032Z 29014G20KT 18/M00 A2957 RMK A01 T01751002  RH  030%=      5-min Rain = 0
KFR1 182033Z 30014KT 17/M00 A2957 RMK A01 T01741002  RH  030%=      5-min Rain = 0
KFR1 182034Z 29013KT 17/M00 A2957 RMK A01 T01731002  RH  031%=      5-min Rain = 0
KFR1 182035Z 29011G16KT 17/M00 A2957 RMK A01 T01741002  RH  030%=      5-min Rain = 0
KFR1 182036Z 30012KT 18/M00 A2957 RMK A01 T01751001  RH  030%=      5-min Rain = 0
KFR1 182037Z 30013KT 17/M00 A2957 RMK A01 T01741002  RH  030%=      5-min Rain = 0
KFR1 182038Z 29015G20KT 17/M01 A2957 RMK A01 T01741005  RH  030%=      5-min Rain = 0
KFR1 182039Z 29012KT 17/M01 A2957 RMK A01 T01741006  RH  029%=      5-min Rain = 0
KFR1 182040Z 29011KT 18/M01 A2957 RMK A01 T01751005  RH  030%=      5-min Rain = 0
KFR1 182041Z 29008KT 18/M01 A2957 RMK A01 T01761006  RH  029%=      5-min Rain = 0
KFR1 182042Z 30009KT 18/M00 A2957 RMK A01 T01781004  RH  029%=      5-min Rain = 0
KFR1 182043Z 30009KT 18/M00 A2957 RMK A01 T01811002  RH  029%=      5-min Rain = 0
KFR1 182044Z 31014KT 18/M00 A2957 RMK A01 T01821004  RH  029%=      5-min Rain = 0
KFR1 182045Z 32010KT 18/M00 A2957 RMK A01 T01801004  RH  029%=      5-min Rain = 0
KFR1 182046Z 33008KT 18/M01 A2957 RMK A01 T01801005  RH  029%=      5-min Rain = 0
KFR1 182047Z 32010KT 18/M00 A2957 RMK A01 T01811004  RH  028%=      5-min Rain = 0
KFR1 182048Z 31010KT 18/M01 A2957 RMK A01 T01821005  RH  028%=      5-min Rain = 0
KFR1 182049Z 31009KT 18/M01 A2957 RMK A01 T01811005  RH  028%=      5-min Rain = 0
KFR1 182050Z 30006KT 18/M00 A2957 RMK A01 T01811003  RH  029%=      5-min Rain = 0
KFR1 182051Z 30007KT 18/M00 A2957 RMK A01 T01821001  RH  029%=      5-min Rain = 0
KFR1 182052Z 30009KT 18/M00 A2957 RMK A01 T01831003  RH  028%=      5-min Rain = 0
KFR1 182053Z 31007KT 18/M00 A2957 RMK A01 T01831003  RH  029%=      5-min Rain = 0
KFR1 182054Z 32010KT 19/M00 A2957 RMK A01 T01851001  RH  029%=      5-min Rain = 0
KFR1 182055Z 33008G13KT 19/00 A2957 RMK A01 T01850000  RH  029%=      5-min Rain = 0
KFR1 182056Z 33008KT 18/M00 A2957 RMK A01 T01831001  RH  029%=      5-min Rain = 0
KFR1 182057Z 32009KT 18/M00 A2957 RMK A01 T01791003  RH  029%=      5-min Rain = 0
KFR1 182058Z 32009KT 18/M01 A2957 RMK A01 T01781005  RH  029%=      5-min Rain = 0
KFR1 182059Z 32008KT 18/M01 A2957 RMK A01 T01791005  RH  029%=      5-min Rain = 0
KFR1 182100Z 33008KT 18/M01 A2957 RMK A01 T01781009  RH  028%=      5-min Rain = 0
KFR1 182101Z 33007KT 18/M01 A2957 RMK A01 T01771008  RH  028%=      5-min Rain = 0
KFR1 182102Z 34005KT 18/M01 A2957 RMK A01 T01771007  RH  029%=      5-min Rain = 0
KFR1 182103Z 33005KT 18/M01 A2957 RMK A01 T01791007  RH  028%=      5-min Rain = 0
KFR1 182104Z 31007KT 18/M01 A2957 RMK A01 T01801006  RH  028%=      5-min Rain = 0
KFR1 182105Z 32008KT 18/M01 A2957 RMK A01 T01821007  RH  028%=      5-min Rain = 0
KFR1 182106Z 33008KT 18/M01 A2957 RMK A01 T01811006  RH  028%=      5-min Rain = 0
KFR1 182107Z 34008KT 18/M01 A2957 RMK A01 T01781006  RH  029%=      5-min Rain = 0
KFR1 182108Z 34011G18KT 17/M01 A2957 RMK A01 T01721007  RH  030%=      5-min Rain = 0
KFR1 182109Z 33014G20KT 17/M01 A2958 RMK A01 T01691009  RH  030%=      5-min Rain = 0
KFR1 182110Z 33012KT 17/M01 A2957 RMK A01 T01681011  RH  030%=      5-min Rain = 0
KFR1 182111Z 32011KT 17/M01 A2957 RMK A01 T01681011  RH  029%=      5-min Rain = 0
KFR1 182112Z 35011G18KT 17/M01 A2957 RMK A01 T01681011  RH  029%=      5-min Rain = 0
KFR1 182113Z 35016G22KT 17/M01 A2957 RMK A01 T01681010  RH  030%=      5-min Rain = 0
KFR1 182114Z 35014G21KT 17/M01 A2958 RMK A01 T01671009  RH  030%=      5-min Rain = 0
KFR1 182115Z 36016G23KT 17/M01 A2958 RMK A01 T01651007  RH  031%=      5-min Rain = 0
KFR1 182116Z 00021G27KT 16/M00 A2958 RMK A01 T01611002  RH  033%=      5-min Rain = 0
KFR1 182117Z 01020KT 16/M00 A2958 RMK A01 T01571002  RH  034%=      5-min Rain = 0
KFR1 182118Z 36019G29KT 16/M00 A2958 RMK A01 T01561001  RH  034%=      5-min Rain = 0
KFR1 182119Z 01023G29KT 15/00 A2958 RMK A01 T01510001  RH  036%=      5-min Rain = 0
KFR1 182120Z 02021G30KT 14/00 A2958 RMK A01 T01420000  RH  038%=      5-min Rain = 0
KFR1 182121Z 02018G27KT 14/00 A2958 RMK A01 T01360001  RH  039%=      5-min Rain = 0
KFR1 182122Z 02017G26KT 13/00 A2958 RMK A01 T01310001  RH  041%=      5-min Rain = 0
KFR1 182123Z 02021G29KT 13/00 A2958 RMK A01 T01290002  RH  042%=      5-min Rain = 0
KFR1 182124Z 02015G21KT 13/00 A2959 RMK A01 T01260002  RH  042%=      5-min Rain = 0
KFR1 182125Z 03020G28KT 13/00 A2958 RMK A01 T01250003  RH  043%=      5-min Rain = 0
KFR1 182126Z 03021G29KT 12/00 A2959 RMK A01 T01230003  RH  044%=      5-min Rain = 0
KFR1 182127Z 02016KT 12/00 A2959 RMK A01 T01230004  RH  044%=      5-min Rain = 0
KFR1 182128Z 03017G23KT 12/00 A2959 RMK A01 T01220004  RH  045%=      5-min Rain = 0
KFR1 182129Z 02018G28KT 12/01 A2959 RMK A01 T01200005  RH  045%=      5-min Rain = 0
KFR1 182130Z 01025G31KT 12/00 A2959 RMK A01 T01180003  RH  045%=      5-min Rain = 0
KFR1 182131Z 02020G25KT 12/00 A2959 RMK A01 T01160002  RH  046%=      5-min Rain = 0
KFR1 182132Z 02016G21KT 12/00 A296 RMK A01 T01150004  RH  046%=      5-min Rain = 0
KFR1 182133Z 02016G22KT 11/01 A296 RMK A01 T01140005  RH  047%=      5-min Rain = 0
KFR1 182134Z 01013KT 11/01 A296 RMK A01 T01120006  RH  048%=      5-min Rain = 0
KFR1 182135Z 02018G24KT 11/01 A296 RMK A01 T01100007  RH  049%=      5-min Rain = 0
KFR1 182136Z 02016G21KT 11/01 A296 RMK A01 T01090007  RH  049%=      5-min Rain = 0
KFR1 182137Z 03016G24KT 11/01 A296 RMK A01 T01080007  RH  050%=      5-min Rain = 0
KFR1 182138Z 02016G21KT 11/01 A2961 RMK A01 T01080006  RH  049%=      5-min Rain = 0
KFR1 182139Z 02015G27KT 11/01 A2961 RMK A01 T01060006  RH  050%=      5-min Rain = 0
KFR1 182140Z 02017G26KT 11/01 A2961 RMK A01 T01050006  RH  050%=      5-min Rain = 0
KFR1 182141Z 02015G20KT 10/01 A2961 RMK A01 T01030006  RH  051%=      5-min Rain = 0
KFR1 182142Z 03015G24KT 10/01 A2961 RMK A01 T01020005  RH  051%=      5-min Rain = 0
KFR1 182143Z 03018G24KT 10/01 A2961 RMK A01 T01010005  RH  051%=      5-min Rain = 0
KFR1 182144Z 03014G19KT 10/01 A2961 RMK A01 T01000006  RH  052%=      5-min Rain = 0
KFR1 182145Z 01016G27KT 10/01 A2962 RMK A01 T00990006  RH  052%=      5-min Rain = 0
KFR1 182146Z 01023G31KT 10/01 A2962 RMK A01 T00970006  RH  053%=      5-min Rain = 0
KFR1 182147Z 02020G32KT 10/01 A2962 RMK A01 T00950005  RH  054%=      5-min Rain = 0
KFR1 182148Z 03018G32KT 09/01 A2962 RMK A01 T00930006  RH  054%=      5-min Rain = 0
KFR1 182149Z 02021G27KT 09/01 A2962 RMK A01 T00920006  RH  055%=      5-min Rain = 0
KFR1 182150Z 02018G27KT 09/01 A2963 RMK A01 T00910007  RH  055%=      5-min Rain = 0
KFR1 182151Z 03022G28KT 09/01 A2963 RMK A01 T00900007  RH  056%=      5-min Rain = 0
KFR1 182152Z 02023G31KT 09/01 A2963 RMK A01 T00880007  RH  056%=      5-min Rain = 0
KFR1 182153Z 02020G28KT 09/01 A2963 RMK A01 T00870007  RH  057%=      5-min Rain = 0
KFR1 182154Z 03018G24KT 09/01 A2963 RMK A01 T00860006  RH  057%=      5-min Rain = 0
KFR1 182155Z 03015G24KT 09/01 A2964 RMK A01 T00860006  RH  057%=      5-min Rain = 0
KFR1 182156Z 02020G27KT 09/01 A2964 RMK A01 T00850006  RH  057%=      5-min Rain = 0
KFR1 182157Z 02020G28KT 08/01 A2964 RMK A01 T00840005  RH  057%=      5-min Rain = 0
KFR1 182158Z 02022G27KT 08/01 A2965 RMK A01 T00830005  RH  058%=      5-min Rain = 0
KFR1 182159Z 01021G28KT 08/01 A2965 RMK A01 T00830005  RH  058%=      5-min Rain = 0
KFR1 182200Z 03022G27KT 08/01 A2965 RMK A01 T00830005  RH  058%=      5-min Rain = 0
KFR1 182201Z 02018G23KT 08/01 A2966 RMK A01 T00820006  RH  059%=      5-min Rain = 0
KFR1 182202Z 01017G28KT 08/01 A2966 RMK A01 T00810006  RH  059%=      5-min Rain = 0
KFR1 182203Z 02021G29KT 08/01 A2966 RMK A01 T00800007  RH  060%=      5-min Rain = 0
KFR1 182204Z 02024G33KT 08/01 A2966 RMK A01 T00790005  RH  060%=      5-min Rain = 0
KFR1 182205Z 02024G33KT 08/00 A2966 RMK A01 T00770004  RH  060%=      5-min Rain = 0
KFR1 182206Z 02020G26KT 08/00 A2966 RMK A01 T00770004  RH  060%=      5-min Rain = 0
KFR1 182207Z 02018G25KT 08/00 A2966 RMK A01 T00760003  RH  060%=      5-min Rain = 0
KFR1 182208Z 02019G24KT 08/00 A2966 RMK A01 T00750004  RH  060%=      5-min Rain = 0
KFR1 182209Z 02019G27KT 08/00 A2966 RMK A01 T00750004  RH  061%=      5-min Rain = 0
KFR1 182210Z 03019G27KT 07/00 A2966 RMK A01 T00740003  RH  061%=      5-min Rain = 0
KFR1 182211Z 01023KT 07/00 A2966 RMK A01 T00740003  RH  061%=      5-min Rain = 0
KFR1 182212Z 01021KT 07/00 A2966 RMK A01 T00730003  RH  061%=      5-min Rain = 0
KFR1 182213Z 01022KT 07/00 A2966 RMK A01 T00720003  RH  062%=      5-min Rain = 0
KFR1 182214Z 02017G22KT 07/00 A2967 RMK A01 T00710003  RH  062%=      5-min Rain = 0
KFR1 182215Z 02021G28KT 07/00 A2966 RMK A01 T00700003  RH  063%=      5-min Rain = 0
KFR1 182216Z 03018G26KT 07/00 A2967 RMK A01 T00690004  RH  063%=      5-min Rain = 0
KFR1 182217Z 01019G27KT 07/01 A2967 RMK A01 T00690005  RH  064%=      5-min Rain = 0
KFR1 182218Z 01022G27KT 07/00 A2967 RMK A01 T00670004  RH  064%=      5-min Rain = 0
KFR1 182219Z 01023KT 07/00 A2967 RMK A01 T00660003  RH  064%=      5-min Rain = 0
KFR1 182220Z 01021G29KT 06/00 A2968 RMK A01 T00640002  RH  064%=      5-min Rain = 0
KFR1 182221Z 02019G26KT 06/00 A2968 RMK A01 T00620002  RH  065%=      5-min Rain = 0
KFR1 182222Z 02016G22KT 06/00 A2968 RMK A01 T00620003  RH  066%=      5-min Rain = 0
KFR1 182223Z 02017G22KT 06/00 A2968 RMK A01 T00620003  RH  066%=      5-min Rain = 0
KFR1 182224Z 01018G24KT 06/00 A2969 RMK A01 T00610003  RH  066%=      5-min Rain = 0
KFR1 182225Z 02023G29KT 06/00 A2968 RMK A01 T00610003  RH  066%=      5-min Rain = 0
KFR1 182226Z 02023KT 06/00 A2968 RMK A01 T00600002  RH  066%=      5-min Rain = 0
KFR1 182227Z 02025G30KT 06/00 A2968 RMK A01 T00590001  RH  066%=      5-min Rain = 0
KFR1 182228Z 02019G27KT 06/00 A2969 RMK A01 T00590000  RH  066%=      5-min Rain = 0
KFR1 182229Z 01022G29KT 06/00 A2969 RMK A01 T00580000  RH  066%=      5-min Rain = 0
KFR1 182230Z 02023G31KT 06/00 A2969 RMK A01 T00580000  RH  067%=      5-min Rain = 0
KFR1 182231Z 02020KT 06/00 A2969 RMK A01 T00570001  RH  067%=      5-min Rain = 0
KFR1 182232Z 02016G23KT 06/00 A297 RMK A01 T00570002  RH  067%=      5-min Rain = 0
KFR1 182233Z 01019G26KT 06/00 A297 RMK A01 T00570002  RH  068%=      5-min Rain = 0
KFR1 182234Z 02019G26KT 06/00 A297 RMK A01 T00570002  RH  067%=      5-min Rain = 0
KFR1 182235Z 02017G24KT 06/00 A297 RMK A01 T00570001  RH  067%=      5-min Rain = 0
KFR1 182236Z 01019G25KT 06/00 A297 RMK A01 T00570002  RH  067%=      5-min Rain = 0
KFR1 182237Z 01025G31KT 06/00 A297 RMK A01 T00570001  RH  067%=      5-min Rain = 0
KFR1 182238Z 01025G32KT 06/M00 A297 RMK A01 T00571001  RH  066%=      5-min Rain = 0
KFR1 182239Z 01026G31KT 06/M00 A297 RMK A01 T00571003  RH  066%=      5-min Rain = 0
KFR1 182240Z 01022G30KT 06/M00 A2971 RMK A01 T00571002  RH  066%=      5-min Rain = 0
KFR1 182241Z 02019G25KT 06/M00 A2971 RMK A01 T00571002  RH  066%=      5-min Rain = 0
KFR1 182242Z 01018G26KT 06/M00 A2971 RMK A01 T00581001  RH  066%=      5-min Rain = 0
KFR1 182243Z 02017G25KT 06/M00 A2971 RMK A01 T00581001  RH  066%=      5-min Rain = 0
KFR1 182244Z 03019G28KT 06/M00 A2971 RMK A01 T00571001  RH  066%=      5-min Rain = 0
KFR1 182245Z 02015G23KT 06/M00 A2971 RMK A01 T00571002  RH  066%=      5-min Rain = 0
KFR1 182246Z 01020G29KT 06/M00 A2972 RMK A01 T00581001  RH  066%=      5-min Rain = 0
KFR1 182247Z 02017G25KT 06/M00 A2972 RMK A01 T00571002  RH  066%=      5-min Rain = 0
KFR1 182248Z 01023G31KT 06/M00 A2972 RMK A01 T00561002  RH  066%=      5-min Rain = 0
KFR1 182249Z 01018KT 05/M00 A2972 RMK A01 T00541003  RH  067%=      5-min Rain = 0
KFR1 182250Z 02016G24KT 05/M00 A2972 RMK A01 T00541002  RH  067%=      5-min Rain = 0
KFR1 182251Z 03017G22KT 05/M00 A2973 RMK A01 T00541001  RH  068%=      5-min Rain = 0
KFR1 182252Z 03022KT 05/M00 A2972 RMK A01 T00531003  RH  067%=      5-min Rain = 0
KFR1 182253Z 02018G27KT 05/M00 A2973 RMK A01 T00521003  RH  067%=      5-min Rain = 0
KFR1 182254Z 01020G25KT 05/M00 A2973 RMK A01 T00521003  RH  068%=      5-min Rain = 0
KFR1 182255Z 02018G25KT 05/M00 A2973 RMK A01 T00521001  RH  069%=      5-min Rain = 0
KFR1 182256Z 00019G25KT 05/M00 A2973 RMK A01 T00521001  RH  069%=      5-min Rain = 0
KFR1 182257Z 01025G33KT 05/M00 A2973 RMK A01 T00511002  RH  069%=      5-min Rain = 0
KFR1 182258Z 01027G33KT 05/M00 A2973 RMK A01 T00501004  RH  068%=      5-min Rain = 0
KFR1 182259Z 01025G33KT 05/M01 A2973 RMK A01 T00491006  RH  067%=      5-min Rain = 0
KFR1 182300Z 36025KT 05/M01 A2974 RMK A01 T00491006  RH  068%=      5-min Rain = 0
KFR1 182301Z 01020G25KT 05/M01 A2974 RMK A01 T00491005  RH  068%=      5-min Rain = 0
KFR1 182302Z 01023G29KT 05/M00 A2974 RMK A01 T00491004  RH  069%=      5-min Rain = 0
KFR1 182303Z 02023G30KT 05/M00 A2974 RMK A01 T00481004  RH  069%=      5-min Rain = 0
KFR1 182304Z 01023G28KT 05/M01 A2974 RMK A01 T00471005  RH  069%=      5-min Rain = 0
KFR1 182305Z 02028G35KT 05/M01 A2974 RMK A01 T00461006  RH  069%=      5-min Rain = 0
KFR1 182306Z 02028G34KT 05/M01 A2974 RMK A01 T00451008  RH  069%=      5-min Rain = 0
KFR1 182307Z 01026G36KT 04/M01 A2974 RMK A01 T00441008  RH  069%=      5-min Rain = 0
KFR1 182308Z 00026G35KT 04/M01 A2974 RMK A01 T00431009  RH  069%=      5-min Rain = 0
KFR1 182309Z 01025G31KT 04/M01 A2974 RMK A01 T00431008  RH  069%=      5-min Rain = 0
KFR1 182310Z 01025G32KT 04/M01 A2974 RMK A01 T00431008  RH  070%=      5-min Rain = 0
KFR1 182311Z 02023G32KT 04/M01 A2974 RMK A01 T00421008  RH  070%=      5-min Rain = 0
KFR1 182312Z 02023G28KT 04/M01 A2974 RMK A01 T00421008  RH  070%=      5-min Rain = 0
KFR1 182313Z 01019G26KT 04/M01 A2974 RMK A01 T00411009  RH  070%=      5-min Rain = 0
KFR1 182314Z 01025G31KT 04/M01 A2974 RMK A01 T00411008  RH  070%=      5-min Rain = 0
KFR1 182315Z 01025G32KT 04/M01 A2974 RMK A01 T00411008  RH  071%=      5-min Rain = 0
KFR1 182316Z 01023G32KT 04/M01 A2974 RMK A01 T00401007  RH  071%=      5-min Rain = 0
KFR1 182317Z 02020G27KT 04/M01 A2974 RMK A01 T00411007  RH  071%=      5-min Rain = 0
KFR1 182318Z 02020G25KT 04/M01 A2974 RMK A01 T00401007  RH  071%=      5-min Rain = 0
KFR1 182319Z 02026G35KT 04/M01 A2974 RMK A01 T00401007  RH  071%=      5-min Rain = 0
KFR1 182320Z 01024G31KT 04/M01 A2975 RMK A01 T00401007  RH  072%=      5-min Rain = 0
KFR1 182321Z 01019G28KT 04/M01 A2975 RMK A01 T00401007  RH  072%=      5-min Rain = 0
KFR1 182322Z 01024G29KT 04/M01 A2975 RMK A01 T00401007  RH  072%=      5-min Rain = 0
KFR1 182323Z 02019G27KT 04/M01 A2975 RMK A01 T00391007  RH  072%=      5-min Rain = 0
KFR1 182324Z 01017G26KT 04/M01 A2976 RMK A01 T00391007  RH  072%=      5-min Rain = 0
KFR1 182325Z 02025G32KT 04/M01 A2975 RMK A01 T00391006  RH  072%=      5-min Rain = 0
KFR1 182326Z 02026G34KT 04/M01 A2975 RMK A01 T00391007  RH  072%=      5-min Rain = 0
KFR1 182327Z 02022G30KT 04/M01 A2976 RMK A01 T00381007  RH  072%=      5-min Rain = 0
KFR1 182328Z 02020G26KT 04/M01 A2976 RMK A01 T00381007  RH  072%=      5-min Rain = 0
KFR1 182329Z 01019G25KT 04/M01 A2976 RMK A01 T00381006  RH  073%=      5-min Rain = 0
KFR1 182330Z 03019G26KT 04/M01 A2976 RMK A01 T00381005  RH  074%=      5-min Rain = 0
KFR1 182331Z 02022G29KT 04/M01 A2976 RMK A01 T00381006  RH  073%=      5-min Rain = 0
KFR1 182332Z 02021G28KT 04/M01 A2977 RMK A01 T00371007  RH  073%=      5-min Rain = 0
KFR1 182333Z 02018G24KT 04/M01 A2977 RMK A01 T00371007  RH  073%=      5-min Rain = 0
KFR1 182334Z 01018G27KT 04/M01 A2977 RMK A01 T00371007  RH  073%=      5-min Rain = 0
KFR1 182335Z 01020G31KT 04/M01 A2977 RMK A01 T00371007  RH  073%=      5-min Rain = 0
KFR1 182336Z 01021G26KT 04/M01 A2977 RMK A01 T00371006  RH  073%=      5-min Rain = 0
KFR1 182337Z 01019G27KT 04/M01 A2978 RMK A01 T00371006  RH  074%=      5-min Rain = 0
KFR1 182338Z 01020G27KT 04/M00 A2978 RMK A01 T00371004  RH  075%=      5-min Rain = 0
KFR1 182339Z 01018G27KT 04/M00 A2978 RMK A01 T00371004  RH  075%=      5-min Rain = 0
KFR1 182340Z 01020KT 04/M01 A2978 RMK A01 T00361005  RH  075%=      5-min Rain = 0
KFR1 182341Z 01019KT 04/M00 A2978 RMK A01 T00361004  RH  075%=      5-min Rain = 0
KFR1 182342Z 01021G29KT 04/M00 A2978 RMK A01 T00361004  RH  075%=      5-min Rain = 0
KFR1 182343Z 01018G23KT 04/M00 A2978 RMK A01 T00361004  RH  075%=      5-min Rain = 0
KFR1 182344Z 01020KT 04/M01 A2978 RMK A01 T00361005  RH  075%=      5-min Rain = 0
KFR1 182345Z 02018G25KT 04/M00 A2978 RMK A01 T00361004  RH  075%=      5-min Rain = 0
KFR1 182346Z 02019G24KT 04/M01 A2978 RMK A01 T00351005  RH  075%=      5-min Rain = 0
KFR1 182347Z 01024G36KT 04/M01 A2978 RMK A01 T00351006  RH  074%=      5-min Rain = 0
KFR1 182348Z 02025G31KT 03/M01 A2978 RMK A01 T00341008  RH  074%=      5-min Rain = 0
KFR1 182349Z 01025G31KT 03/M01 A2978 RMK A01 T00331009  RH  074%=      5-min Rain = 0
KFR1 182350Z 01023G32KT 03/M01 A2978 RMK A01 T00331010  RH  074%=      5-min Rain = 0
KFR1 182351Z 00029G34KT 03/M01 A2978 RMK A01 T00331010  RH  074%=      5-min Rain = 0
KFR1 182352Z 01028G34KT 03/M01 A2978 RMK A01 T00321010  RH  074%=      5-min Rain = 0
KFR1 182353Z 02023G33KT 03/M01 A2979 RMK A01 T00321010  RH  074%=      5-min Rain = 0
KFR1 182354Z 01021G29KT 03/M01 A2979 RMK A01 T00311009  RH  075%=      5-min Rain = 0
KFR1 182355Z 02021G26KT 03/M01 A2978 RMK A01 T00311009  RH  075%=      5-min Rain = 0
KFR1 182356Z 01023KT 03/M01 A2979 RMK A01 T00301008  RH  076%=      5-min Rain = 0
KFR1 182357Z 02024G32KT 03/M01 A2979 RMK A01 T00301009  RH  075%=      5-min Rain = 0
KFR1 182358Z 02018G23KT 03/M01 A2979 RMK A01 T00301008  RH  076%=      5-min Rain = 0
KFR1 182359Z 02021G28KT 03/M01 A2979 RMK A01 T00311008  RH  076%=      5-min Rain = 0
KFR1 190000Z 01020G29KT 03/M01 A298 RMK A01 T00301009  RH  076%=      5-min Rain = 0
KFR1 190001Z 01022G29KT 03/M01 A298 RMK A01 T00291009  RH  076%=      5-min Rain = 0
KFR1 190002Z 02026G31KT 03/M01 A298 RMK A01 T00291010  RH  075%=      5-min Rain = 0
KFR1 190003Z 01023G31KT 03/M01 A298 RMK A01 T00281011  RH  075%=      5-min Rain = 0
KFR1 190004Z 01025G33KT 03/M01 A298 RMK A01 T00281010  RH  076%=      5-min Rain = 0
KFR1 190005Z 01023G30KT 03/M01 A298 RMK A01 T00271010  RH  077%=      5-min Rain = 0
KFR1 190006Z 01027G34KT 03/M01 A298 RMK A01 T00271010  RH  077%=      5-min Rain = 0
KFR1 190007Z 01028G36KT 03/M01 A2981 RMK A01 T00261010  RH  077%=      5-min Rain = 0
KFR1 190008Z 01023G33KT 03/M01 A2981 RMK A01 T00261009  RH  077%=      5-min Rain = 0
KFR1 190009Z 01023G28KT 03/M01 A2981 RMK A01 T00261009  RH  077%=      5-min Rain = 0
KFR1 190010Z 01023G34KT 03/M01 A2981 RMK A01 T00261009  RH  078%=      5-min Rain = 0
KFR1 190011Z 01025G34KT 03/M01 A2981 RMK A01 T00261010  RH  077%=      5-min Rain = 0
KFR1 190012Z 01022G28KT 03/M01 A2982 RMK A01 T00261011  RH  077%=      5-min Rain = 0
KFR1 190013Z 01018G25KT 03/M01 A2982 RMK A01 T00251011  RH  077%=      5-min Rain = 0
KFR1 190014Z 02022G29KT 03/M01 A2982 RMK A01 T00251011  RH  077%=      5-min Rain = 0
KFR1 190015Z 02016G24KT 03/M01 A2983 RMK A01 T00251011  RH  077%=      5-min Rain = 0
KFR1 190016Z 01020G25KT 03/M01 A2983 RMK A01 T00251011  RH  078%=      5-min Rain = 0
KFR1 190017Z 01023G28KT 03/M01 A2983 RMK A01 T00251011  RH  077%=      5-min Rain = 0
KFR1 190018Z 01022G28KT 03/M01 A2983 RMK A01 T00251011  RH  077%=      5-min Rain = 0
KFR1 190019Z 01024KT 03/M01 A2983 RMK A01 T00251010  RH  078%=      5-min Rain = 0
KFR1 190020Z 01025G31KT 02/M01 A2984 RMK A01 T00241011  RH  078%=      5-min Rain = 0
KFR1 190021Z 02020G28KT 02/M01 A2984 RMK A01 T00241011  RH  077%=      5-min Rain = 0
KFR1 190022Z 02022G29KT 02/M01 A2984 RMK A01 T00241011  RH  078%=      5-min Rain = 0
KFR1 190023Z 02023G32KT 02/M01 A2984 RMK A01 T00231012  RH  078%=      5-min Rain = 0
KFR1 190024Z 01022G33KT 02/M01 A2984 RMK A01 T00231013  RH  077%=      5-min Rain = 0
KFR1 190025Z 01024G31KT 02/M01 A2984 RMK A01 T00221013  RH  077%=      5-min Rain = 0
KFR1 190026Z 01026G33KT 02/M01 A2984 RMK A01 T00221012  RH  078%=      5-min Rain = 0
KFR1 190027Z 01026G32KT 02/M01 A2984 RMK A01 T00221013  RH  078%=      5-min Rain = 0
KFR1 190028Z 01023G28KT 02/M01 A2984 RMK A01 T00221013  RH  078%=      5-min Rain = 0
KFR1 190029Z 01021G29KT 02/M01 A2985 RMK A01 T00221013  RH  078%=      5-min Rain = 0
KFR1 190030Z 01022G28KT 02/M01 A2985 RMK A01 T00221014  RH  077%=      5-min Rain = 0
KFR1 190031Z 01023G29KT 02/M01 A2985 RMK A01 T00221013  RH  078%=      5-min Rain = 0
KFR1 190032Z 01022G27KT 02/M01 A2985 RMK A01 T00221013  RH  078%=      5-min Rain = 0
KFR1 190033Z 00024G34KT 02/M01 A2985 RMK A01 T00221013  RH  078%=      5-min Rain = 0
KFR1 190034Z 01019G25KT 02/M01 A2985 RMK A01 T00221013  RH  077%=      5-min Rain = 0
KFR1 190035Z 01026KT 02/M01 A2984 RMK A01 T00221013  RH  078%=      5-min Rain = 0
KFR1 190036Z 01027G35KT 02/M02 A2985 RMK A01 T00211015  RH  077%=      5-min Rain = 0
KFR1 190037Z 01025KT 02/M02 A2985 RMK A01 T00211016  RH  077%=      5-min Rain = 0
KFR1 190038Z 01024G30KT 02/M02 A2985 RMK A01 T00211015  RH  077%=      5-min Rain = 0
KFR1 190039Z 01020G27KT 02/M02 A2985 RMK A01 T00211015  RH  077%=      5-min Rain = 0
KFR1 190040Z 01023G30KT 02/M02 A2985 RMK A01 T00211015  RH  077%=      5-min Rain = 0
KFR1 190041Z 02028G34KT 02/M02 A2985 RMK A01 T00211016  RH  077%=      5-min Rain = 0
KFR1 190042Z 01022G27KT 02/M02 A2985 RMK A01 T00211017  RH  076%=      5-min Rain = 0
KFR1 190043Z 01025G30KT 02/M02 A2986 RMK A01 T00211016  RH  077%=      5-min Rain = 0
KFR1 190044Z 01024G30KT 02/M02 A2985 RMK A01 T00211016  RH  077%=      5-min Rain = 0
KFR1 190045Z 02022G30KT 02/M02 A2986 RMK A01 T00211015  RH  077%=      5-min Rain = 0
KFR1 190046Z 01024G30KT 02/M02 A2985 RMK A01 T00211015  RH  077%=      5-min Rain = 0
KFR1 190047Z 01025G30KT 02/M02 A2985 RMK A01 T00211015  RH  077%=      5-min Rain = 0
KFR1 190048Z 02024G29KT 02/M02 A2985 RMK A01 T00211015  RH  077%=      5-min Rain = 0
KFR1 190049Z 02022G27KT 02/M02 A2985 RMK A01 T00211015  RH  077%=      5-min Rain = 0
KFR1 190050Z 01024G33KT 02/M02 A2985 RMK A01 T00211015  RH  077%=      5-min Rain = 0
KFR1 190051Z 01023G28KT 02/M01 A2986 RMK A01 T00211014  RH  078%=      5-min Rain = 0
KFR1 190052Z 01024G31KT 02/M02 A2985 RMK A01 T00211015  RH  077%=      5-min Rain = 0
KFR1 190053Z 00022G28KT 02/M02 A2985 RMK A01 T00211015  RH  077%=      5-min Rain = 0
KFR1 190054Z 01028G36KT 02/M01 A2985 RMK A01 T00211014  RH  077%=      5-min Rain = 0
KFR1 190055Z 00027G34KT 02/M02 A2986 RMK A01 T00211015  RH  077%=      5-min Rain = 0
KFR1 190056Z 00026G33KT 02/M02 A2986 RMK A01 T00211016  RH  077%=      5-min Rain = 0
KFR1 190057Z 02024G34KT 02/M02 A2985 RMK A01 T00201016  RH  077%=      5-min Rain = 0
KFR1 190058Z 02028G34KT 02/M02 A2986 RMK A01 T00201017  RH  076%=      5-min Rain = 0
KFR1 190059Z 00030G40KT 02/M02 A2986 RMK A01 T00211016  RH  077%=      5-min Rain = 0
KFR1 190100Z 01029G34KT 02/M02 A2986 RMK A01 T00201018  RH  076%=      5-min Rain = 0
KFR1 190101Z 01026G31KT 02/M02 A2986 RMK A01 T00191016  RH  077%=      5-min Rain = 0
KFR1 190102Z 02024G31KT 02/M02 A2986 RMK A01 T00191015  RH  078%=      5-min Rain = 0
KFR1 190103Z 01026G31KT 02/M01 A2986 RMK A01 T00191014  RH  079%=      5-min Rain = 0
KFR1 190104Z 01025KT 02/M01 A2986 RMK A01 T00191014  RH  079%=      5-min Rain = 0
KFR1 190105Z 02023G28KT 02/M01 A2987 RMK A01 T00191013  RH  079%=      5-min Rain = 0
KFR1 190106Z 01019G26KT 02/M01 A2987 RMK A01 T00191013  RH  080%=      5-min Rain = 0
KFR1 190107Z 01020G27KT 02/M01 A2987 RMK A01 T00191013  RH  080%=      5-min Rain = 0
KFR1 190108Z 02023G32KT 02/M01 A2987 RMK A01 T00181012  RH  080%=      5-min Rain = 0
KFR1 190109Z 01027G36KT 02/M02 A2986 RMK A01 T00171015  RH  079%=      5-min Rain = 0
KFR1 190110Z 02025G34KT 02/M02 A2986 RMK A01 T00171017  RH  078%=      5-min Rain = 0
KFR1 190111Z 01025G38KT 02/M02 A2987 RMK A01 T00171017  RH  078%=      5-min Rain = 0
KFR1 190112Z 02023G33KT 02/M02 A2987 RMK A01 T00161018  RH  078%=      5-min Rain = 0
KFR1 190113Z 02029G35KT 02/M02 A2987 RMK A01 T00161017  RH  078%=      5-min Rain = 0
KFR1 190114Z 01030G35KT 02/M02 A2987 RMK A01 T00161017  RH  079%=      5-min Rain = 0
KFR1 190115Z 01025G32KT 02/M02 A2987 RMK A01 T00151018  RH  078%=      5-min Rain = 0
KFR1 190116Z 02024G31KT 02/M02 A2987 RMK A01 T00151018  RH  079%=      5-min Rain = 0
KFR1 190117Z 02024G31KT 02/M02 A2987 RMK A01 T00151017  RH  080%=      5-min Rain = 0
KFR1 190118Z 01026G35KT 02/M02 A2988 RMK A01 T00151016  RH  080%=      5-min Rain = 0
KFR1 190119Z 01024G34KT 01/M02 A2988 RMK A01 T00141016  RH  080%=      5-min Rain = 0
KFR1 190120Z 02025G33KT 01/M02 A2988 RMK A01 T00141016  RH  080%=      5-min Rain = 0
KFR1 190121Z 01026G32KT 01/M02 A2988 RMK A01 T00141016  RH  081%=      5-min Rain = 0
KFR1 190122Z 01021G31KT 01/M02 A2988 RMK A01 T00141015  RH  081%=      5-min Rain = 0
KFR1 190123Z 01025G32KT 01/M02 A2989 RMK A01 T00141015  RH  082%=      5-min Rain = 0
KFR1 190124Z 02023G31KT 01/M01 A2989 RMK A01 T00131014  RH  082%=      5-min Rain = 0
KFR1 190125Z 01027G34KT 01/M01 A2989 RMK A01 T00131014  RH  082%=      5-min Rain = 0
KFR1 190126Z 02023G35KT 01/M02 A2989 RMK A01 T00131015  RH  082%=      5-min Rain = 0
KFR1 190127Z 02023G33KT 01/M01 A2989 RMK A01 T00121014  RH  083%=      5-min Rain = 0
KFR1 190128Z 01027G34KT 01/M01 A2989 RMK A01 T00121014  RH  083%=      5-min Rain = 0
KFR1 190129Z 01023G30KT 01/M01 A2989 RMK A01 T00121014  RH  083%=      5-min Rain = 0
KFR1 190130Z 01025G30KT 01/M01 A2989 RMK A01 T00121013  RH  084%=      5-min Rain = 0
KFR1 190131Z 01027G35KT 01/M01 A2989 RMK A01 T00111013  RH  084%=      5-min Rain = 0
KFR1 190132Z 01027G33KT 01/M01 A2989 RMK A01 T00111014  RH  084%=      5-min Rain = 0
KFR1 190133Z 01024G29KT 01/M01 A2989 RMK A01 T00111013  RH  084%=      5-min Rain = 0
KFR1 190134Z 01021G27KT 01/M01 A299 RMK A01 T00101013  RH  085%=      5-min Rain = 0
KFR1 190135Z 01022G33KT 01/M01 A299 RMK A01 T00101012  RH  085%=      5-min Rain = 0
KFR1 190136Z 01025G30KT 01/M01 A299 RMK A01 T00101011  RH  086%=      5-min Rain = 0
KFR1 190137Z 01021G30KT 01/M01 A299 RMK A01 T00091012  RH  086%=      5-min Rain = 0
KFR1 190138Z 01024G30KT 01/M01 A299 RMK A01 T00091011  RH  086%=      5-min Rain = 0
KFR1 190139Z 01020KT 01/M01 A299 RMK A01 T00091010  RH  087%=      5-min Rain = 0
KFR1 190140Z 01022KT 01/M01 A2991 RMK A01 T00101009  RH  087%=      5-min Rain = 0
KFR1 190141Z 01023G31KT 01/M01 A2991 RMK A01 T00091009  RH  087%=      5-min Rain = 0
KFR1 190142Z 01022G27KT 01/M01 A2991 RMK A01 T00091010  RH  088%=      5-min Rain = 0
KFR1 190143Z 01022G28KT 01/M01 A2991 RMK A01 T00091009  RH  088%=      5-min Rain = 0
KFR1 190144Z 01022G29KT 01/M01 A2991 RMK A01 T00091009  RH  088%=      5-min Rain = 0
KFR1 190145Z 01020G26KT 01/M01 A2991 RMK A01 T00081009  RH  088%=      5-min Rain = 0
KFR1 190146Z 01023G33KT 01/M01 A2991 RMK A01 T00081009  RH  088%=      5-min Rain = 0
KFR1 190147Z 01022G29KT 01/M01 A2991 RMK A01 T00081010  RH  088%=      5-min Rain = 0
KFR1 190148Z 01028KT 01/M01 A2991 RMK A01 T00081010  RH  088%=      5-min Rain = 0
KFR1 190149Z 01025G33KT 01/M01 A2992 RMK A01 T00081011  RH  087%=      5-min Rain = 0
KFR1 190150Z 01023G28KT 01/M01 A2991 RMK A01 T00081010  RH  087%=      5-min Rain = 0
KFR1 190151Z 01029G35KT 01/M01 A2991 RMK A01 T00081010  RH  088%=      5-min Rain = 0
KFR1 190152Z 01027G33KT 01/M01 A2992 RMK A01 T00081011  RH  087%=      5-min Rain = 0
KFR1 190153Z 01023G31KT 01/M01 A2992 RMK A01 T00081011  RH  087%=      5-min Rain = 0
KFR1 190154Z 01020G28KT 01/M01 A2992 RMK A01 T00071011  RH  088%=      5-min Rain = 0
KFR1 190155Z 01024G30KT 01/M01 A2992 RMK A01 T00071010  RH  088%=      5-min Rain = 0
KFR1 190156Z 01024G30KT 01/M01 A2992 RMK A01 T00071010  RH  089%=      5-min Rain = 0
KFR1 190157Z 01025G31KT 01/M01 A2992 RMK A01 T00071010  RH  089%=      5-min Rain = 0
KFR1 190158Z 01028G35KT 01/M01 A2992 RMK A01 T00071010  RH  089%=      5-min Rain = 0
KFR1 190159Z 01026G32KT 01/M01 A2992 RMK A01 T00061011  RH  089%=      5-min Rain = 0
KFR1 190200Z 01025G31KT 01/M01 A2992 RMK A01 T00061011  RH  089%=      5-min Rain = 0
KFR1 190201Z 01026G31KT 01/M01 A2992 RMK A01 T00061011  RH  089%=      5-min Rain = 0
KFR1 190202Z 01023G33KT 01/M01 A2992 RMK A01 T00061010  RH  089%=      5-min Rain = 0
KFR1 190203Z 01026G33KT 01/M01 A2992 RMK A01 T00061010  RH  089%=      5-min Rain = 0
KFR1 190204Z 01026G34KT 01/M01 A2993 RMK A01 T00061011  RH  089%=      5-min Rain = 0
KFR1 190205Z 01023G30KT 01/M01 A2993 RMK A01 T00061011  RH  088%=      5-min Rain = 0
KFR1 190206Z 01026G33KT 01/M01 A2993 RMK A01 T00061011  RH  088%=      5-min Rain = 0
KFR1 190207Z 01025G35KT 01/M01 A2993 RMK A01 T00061011  RH  088%=      5-min Rain = 0
KFR1 190208Z 02024G36KT 01/M01 A2993 RMK A01 T00061012  RH  088%=      5-min Rain = 0
KFR1 190209Z 02024G33KT 01/M01 A2993 RMK A01 T00061012  RH  088%=      5-min Rain = 0
KFR1 190210Z 02022G28KT 01/M01 A2993 RMK A01 T00061013  RH  088%=      5-min Rain = 0
KFR1 190211Z 02027G34KT 01/M01 A2993 RMK A01 T00061013  RH  087%=      5-min Rain = 0
KFR1 190212Z 01024G30KT 01/M01 A2993 RMK A01 T00061013  RH  087%=      5-min Rain = 0
KFR1 190213Z 01024KT 01/M01 A2993 RMK A01 T00061013  RH  087%=      5-min Rain = 0
KFR1 190214Z 01023G28KT 01/M01 A2993 RMK A01 T00061013  RH  087%=      5-min Rain = 0
KFR1 190215Z 01020KT 01/M01 A2994 RMK A01 T00061013  RH  087%=      5-min Rain = 0
KFR1 190216Z 01021G27KT 01/M01 A2994 RMK A01 T00061012  RH  088%=      5-min Rain = 0
KFR1 190217Z 01022KT 01/M01 A2994 RMK A01 T00061012  RH  088%=      5-min Rain = 0
KFR1 190218Z 00019KT 01/M01 A2994 RMK A01 T00061011  RH  088%=      5-min Rain = 0
KFR1 190219Z 00020G25KT 01/M01 A2994 RMK A01 T00061010  RH  089%=      5-min Rain = 0
KFR1 190220Z 36023G29KT 01/M01 A2994 RMK A01 T00071010  RH  089%=      5-min Rain = 0
KFR1 190221Z 01025G31KT 01/M01 A2994 RMK A01 T00071012  RH  088%=      5-min Rain = 0
KFR1 190222Z 00025G31KT 01/M01 A2994 RMK A01 T00071013  RH  087%=      5-min Rain = 0
KFR1 190223Z 01024KT 01/M01 A2994 RMK A01 T00071014  RH  086%=      5-min Rain = 0
KFR1 190224Z 01021G29KT 01/M01 A2994 RMK A01 T00071014  RH  086%=      5-min Rain = 0
KFR1 190225Z 01023G29KT 01/M01 A2994 RMK A01 T00071013  RH  086%=      5-min Rain = 0
KFR1 190226Z 01023G30KT 01/M02 A2994 RMK A01 T00071015  RH  085%=      5-min Rain = 0
KFR1 190227Z 00024G29KT 01/M02 A2995 RMK A01 T00071015  RH  085%=      5-min Rain = 0
KFR1 190228Z 01023G28KT 01/M02 A2995 RMK A01 T00081015  RH  085%=      5-min Rain = 0
KFR1 190229Z 01022KT 01/M02 A2995 RMK A01 T00081016  RH  084%=      5-min Rain = 0
KFR1 190230Z 00025G30KT 01/M02 A2995 RMK A01 T00081017  RH  083%=      5-min Rain = 0
KFR1 190231Z 01026G34KT 01/M02 A2995 RMK A01 T00081019  RH  082%=      5-min Rain = 0
KFR1 190232Z 00024G29KT 01/M02 A2995 RMK A01 T00081019  RH  082%=      5-min Rain = 0
KFR1 190233Z 00022G28KT 01/M02 A2995 RMK A01 T00081018  RH  083%=      5-min Rain = 0
KFR1 190234Z 01019G25KT 01/M02 A2996 RMK A01 T00081019  RH  083%=      5-min Rain = 0
KFR1 190235Z 01019G24KT 01/M02 A2996 RMK A01 T00081018  RH  083%=      5-min Rain = 0
KFR1 190236Z 01020G33KT 01/M02 A2996 RMK A01 T00081019  RH  082%=      5-min Rain = 0
KFR1 190237Z 01017G24KT 01/M02 A2996 RMK A01 T00071019  RH  083%=      5-min Rain = 0
KFR1 190238Z 00022G27KT 01/M02 A2996 RMK A01 T00071018  RH  083%=      5-min Rain = 0
KFR1 190239Z 02021G26KT 01/M02 A2996 RMK A01 T00071019  RH  083%=      5-min Rain = 0
KFR1 190240Z 01019G25KT 01/M02 A2997 RMK A01 T00071019  RH  083%=      5-min Rain = 0
KFR1 190241Z 00022G29KT 01/M02 A2997 RMK A01 T00071019  RH  083%=      5-min Rain = 0
KFR1 190242Z 02021G29KT 01/M02 A2997 RMK A01 T00071019  RH  083%=      5-min Rain = 0
KFR1 190243Z 01023G28KT 01/M02 A2997 RMK A01 T00071019  RH  083%=      5-min Rain = 0
KFR1 190244Z 01022G30KT 01/M02 A2997 RMK A01 T00071019  RH  083%=      5-min Rain = 0
KFR1 190245Z 01026G33KT 01/M02 A2996 RMK A01 T00071020  RH  082%=      5-min Rain = 0
KFR1 190246Z 02026KT 01/M02 A2997 RMK A01 T00061023  RH  081%=      5-min Rain = 0
KFR1 190247Z 02020G27KT 01/M02 A2997 RMK A01 T00061022  RH  082%=      5-min Rain = 0
KFR1 190248Z 01024G30KT 01/M02 A2997 RMK A01 T00061021  RH  082%=      5-min Rain = 0
KFR1 190249Z 01025G36KT 01/M02 A2997 RMK A01 T00061021  RH  082%=      5-min Rain = 0
KFR1 190250Z 01022G28KT 01/M02 A2997 RMK A01 T00061021  RH  082%=      5-min Rain = 0
KFR1 190251Z 01022G33KT 01/M02 A2997 RMK A01 T00061021  RH  082%=      5-min Rain = 0
KFR1 190252Z 01023G31KT 01/M02 A2997 RMK A01 T00061021  RH  082%=      5-min Rain = 0
KFR1 190253Z 01025KT 01/M02 A2997 RMK A01 T00051022  RH  082%=      5-min Rain = 0
KFR1 190254Z 01022G27KT 01/M02 A2997 RMK A01 T00051023  RH  082%=      5-min Rain = 0
KFR1 190255Z 01023G28KT 01/M02 A2998 RMK A01 T00051022  RH  082%=      5-min Rain = 0
KFR1 190256Z 00024G30KT 01/M02 A2997 RMK A01 T00051022  RH  082%=      5-min Rain = 0
KFR1 190257Z 01021G30KT 01/M02 A2997 RMK A01 T00051022  RH  082%=      5-min Rain = 0
KFR1 190258Z 01021KT 01/M02 A2998 RMK A01 T00061021  RH  082%=      5-min Rain = 0
KFR1 190259Z 01021KT 01/M02 A2998 RMK A01 T00061020  RH  082%=      5-min Rain = 0
KFR1 190300Z 01020KT 01/M02 A2998 RMK A01 T00061020  RH  083%=      5-min Rain = 0
KFR1 190301Z 01018G23KT 01/M02 A2998 RMK A01 T00061020  RH  083%=      5-min Rain = 0
KFR1 190302Z 01024G30KT 01/M02 A2998 RMK A01 T00061019  RH  083%=      5-min Rain = 0
KFR1 190303Z 01025G34KT 01/M02 A2998 RMK A01 T00061020  RH  083%=      5-min Rain = 0
KFR1 190304Z 01020G25KT 01/M02 A2998 RMK A01 T00051021  RH  082%=      5-min Rain = 0
KFR1 190305Z 01021G27KT 01/M02 A2998 RMK A01 T00051020  RH  083%=      5-min Rain = 0
KFR1 190306Z 01019G27KT 01/M02 A2999 RMK A01 T00051019  RH  084%=      5-min Rain = 0
KFR1 190307Z 01021G28KT 01/M02 A2999 RMK A01 T00051019  RH  084%=      5-min Rain = 0
KFR1 190308Z 00019G24KT 01/M02 A2999 RMK A01 T00051019  RH  084%=      5-min Rain = 0
KFR1 190309Z 01021G27KT 00/M02 A2999 RMK A01 T00041017  RH  085%=      5-min Rain = 0
KFR1 190310Z 01021G28KT 00/M02 A2999 RMK A01 T00041017  RH  086%=      5-min Rain = 0
KFR1 190311Z 01021KT 00/M02 A2999 RMK A01 T00031017  RH  086%=      5-min Rain = 0
KFR1 190312Z 01019G24KT 00/M02 A2999 RMK A01 T00031016  RH  087%=      5-min Rain = 0
KFR1 190313Z 01022G30KT 00/M02 A2999 RMK A01 T00031016  RH  087%=      5-min Rain = 0
KFR1 190314Z 01018G24KT 00/M02 A2999 RMK A01 T00021017  RH  087%=      5-min Rain = 0
KFR1 190315Z 01020G26KT 00/M02 A2999 RMK A01 T00011016  RH  088%=      5-min Rain = 0
KFR1 190316Z 01019G25KT 00/M02 A2999 RMK A01 T00011015  RH  089%=      5-min Rain = 0
KFR1 190317Z 00021G27KT 00/M02 A2999 RMK A01 T00011015  RH  089%=      5-min Rain = 0
KFR1 190318Z 02021G26KT 00/02 A2999 RMK A01 T00000-15  RH  090%=      5-min Rain = 0
KFR1 190319Z 01021G26KT 00/02 A30 RMK A01 T00-00-15  RH  090%=      5-min Rain = 0
KFR1 190320Z 01022KT M00/M02 A30 RMK A01 T10011015  RH  090%=      5-min Rain = 0
KFR1 190321Z 02019KT M00/M02 A30 RMK A01 T10011015  RH  090%=      5-min Rain = 0
KFR1 190322Z 03014G19KT M00/M01 A30 RMK A01 T10011014  RH  091%=      5-min Rain = 0
KFR1 190323Z 02013G19KT M00/M01 A30 RMK A01 T10011013  RH  092%=      5-min Rain = 0
KFR1 190324Z 02019G26KT M00/M01 A30 RMK A01 T10021014  RH  092%=      5-min Rain = 0
KFR1 190325Z 02015G21KT M00/M02 A30 RMK A01 T10021015  RH  091%=      5-min Rain = 0
KFR1 190326Z 01018G24KT M00/M02 A30 RMK A01 T10021015  RH  091%=      5-min Rain = 0
KFR1 190327Z 01019KT M00/M02 A30 RMK A01 T10021016  RH  091%=      5-min Rain = 0
KFR1 190328Z 01019KT M00/M02 A30 RMK A01 T10021016  RH  090%=      5-min Rain = 0
KFR1 190329Z 01020G28KT M00/M02 A30 RMK A01 T10011016  RH  090%=      5-min Rain = 0
KFR1 190330Z 01020G30KT M00/M02 A30 RMK A01 T10011017  RH  089%=      5-min Rain = 0
KFR1 190331Z 01026KT M00/M02 A30 RMK A01 T10011018  RH  088%=      5-min Rain = 0
KFR1 190332Z 03019G24KT M00/M02 A30 RMK A01 T10011019  RH  088%=      5-min Rain = 0
KFR1 190333Z 02025G31KT M00/M02 A30 RMK A01 T10011020  RH  087%=      5-min Rain = 0
KFR1 190334Z 01020G26KT M00/M02 A3001 RMK A01 T10011020  RH  087%=      5-min Rain = 0
KFR1 190335Z 02018G25KT M00/M02 A3001 RMK A01 T10011020  RH  087%=      5-min Rain = 0
KFR1 190336Z 02020G26KT M00/M02 A3001 RMK A01 T10011019  RH  088%=      5-min Rain = 0
KFR1 190337Z 01018G27KT M00/M02 A3001 RMK A01 T10011018  RH  088%=      5-min Rain = 0
KFR1 190338Z 01024G29KT M00/M02 A3001 RMK A01 T10011018  RH  088%=      5-min Rain = 0
KFR1 190339Z 01020G25KT M00/M02 A3001 RMK A01 T10011020  RH  087%=      5-min Rain = 0
KFR1 190340Z 02014G19KT M00/M02 A3001 RMK A01 T10011018  RH  088%=      5-min Rain = 0
KFR1 190341Z 02016G25KT M00/M02 A3001 RMK A01 T10011018  RH  088%=      5-min Rain = 0
KFR1 190342Z 02022KT M00/M02 A3001 RMK A01 T10011018  RH  088%=      5-min Rain = 0
KFR1 190343Z 01018G23KT 00/02 A3001 RMK A01 T00-00-19  RH  087%=      5-min Rain = 0
KFR1 190344Z 01018G24KT 00/02 A3001 RMK A01 T00-00-18  RH  088%=      5-min Rain = 0
KFR1 190345Z 02019G25KT 00/02 A3001 RMK A01 T00-00-18  RH  088%=      5-min Rain = 0
KFR1 190346Z 02024G30KT 00/02 A3001 RMK A01 T00000-18  RH  087%=      5-min Rain = 0
KFR1 190347Z 02020G29KT 00/M02 A3001 RMK A01 T00011019  RH  087%=      5-min Rain = 0
KFR1 190348Z 02023G29KT 00/M02 A3001 RMK A01 T00011019  RH  087%=      5-min Rain = 0
KFR1 190349Z 02019G25KT 00/M02 A3001 RMK A01 T00011020  RH  086%=      5-min Rain = 0
KFR1 190350Z 01025G32KT 00/M02 A3001 RMK A01 T00011019  RH  086%=      5-min Rain = 0
KFR1 190351Z 02024G32KT 00/02 A3001 RMK A01 T00000-20  RH  086%=      5-min Rain = 0
KFR1 190352Z 01022G29KT 00/02 A3001 RMK A01 T00000-20  RH  086%=      5-min Rain = 0
KFR1 190353Z 02022G35KT 00/02 A3001 RMK A01 T00000-21  RH  086%=      5-min Rain = 0
KFR1 190354Z 02022G28KT 00/02 A3001 RMK A01 T00000-21  RH  086%=      5-min Rain = 0
KFR1 190355Z 02026G36KT 00/M02 A3001 RMK A01 T00011020  RH  086%=      5-min Rain = 0
KFR1 190356Z 01022G29KT 00/M02 A3001 RMK A01 T00011020  RH  086%=      5-min Rain = 0
KFR1 190357Z 01021G26KT 00/M02 A3001 RMK A01 T00011020  RH  086%=      5-min Rain = 0
KFR1 190358Z 01020G29KT 00/M02 A3002 RMK A01 T00011020  RH  086%=      5-min Rain = 0
KFR1 190359Z 01027G32KT 00/M02 A3001 RMK A01 T00011020  RH  086%=      5-min Rain = 0
KFR1 190400Z 01023KT 00/M02 A3001 RMK A01 T00011020  RH  086%=      5-min Rain = 0
KFR1 190401Z 01024G34KT 00/02 A3002 RMK A01 T00000-21  RH  086%=      5-min Rain = 0
KFR1 190402Z 03018G25KT 00/02 A3002 RMK A01 T00000-20  RH  086%=      5-min Rain = 0
KFR1 190403Z 03025G31KT 00/02 A3001 RMK A01 T00000-20  RH  087%=      5-min Rain = 0
KFR1 190404Z 01023G31KT 00/02 A3001 RMK A01 T00000-20  RH  087%=      5-min Rain = 0
KFR1 190405Z 03020G29KT 00/02 A3002 RMK A01 T00-00-19  RH  087%=      5-min Rain = 0
KFR1 190406Z 02019G25KT 00/02 A3002 RMK A01 T00-00-19  RH  087%=      5-min Rain = 0
KFR1 190407Z 02019G28KT 00/02 A3002 RMK A01 T00-00-19  RH  087%=      5-min Rain = 0
KFR1 190408Z 02022G30KT 00/02 A3002 RMK A01 T00-00-19  RH  087%=      5-min Rain = 0
KFR1 190409Z 01022G28KT M00/M02 A3002 RMK A01 T10011019  RH  088%=      5-min Rain = 0
KFR1 190410Z 02016G22KT M00/M02 A3002 RMK A01 T10011019  RH  088%=      5-min Rain = 0
KFR1 190411Z 03015KT M00/M02 A3002 RMK A01 T10011018  RH  088%=      5-min Rain = 0
KFR1 190412Z 01016G22KT M00/M02 A3002 RMK A01 T10011017  RH  089%=      5-min Rain = 0
KFR1 190413Z 01016KT M00/M02 A3002 RMK A01 T10011017  RH  089%=      5-min Rain = 0
KFR1 190414Z 03019G26KT M00/M02 A3002 RMK A01 T10011017  RH  089%=      5-min Rain = 0
KFR1 190415Z 01018G24KT M00/M02 A3002 RMK A01 T10011017  RH  089%=      5-min Rain = 0
KFR1 190416Z 03013G22KT M00/M02 A3002 RMK A01 T10011018  RH  088%=      5-min Rain = 0
KFR1 190417Z 01013KT M00/M02 A3002 RMK A01 T10011018  RH  088%=      5-min Rain = 0
KFR1 190418Z 02017KT M00/M02 A3002 RMK A01 T10011018  RH  088%=      5-min Rain = 0
KFR1 190419Z 03016KT M00/M02 A3002 RMK A01 T10011018  RH  088%=      5-min Rain = 0
KFR1 190420Z 02015G23KT M00/M02 A3002 RMK A01 T10011019  RH  088%=      5-min Rain = 0
KFR1 190421Z 01012KT M00/M02 A3003 RMK A01 T10011019  RH  088%=      5-min Rain = 0
KFR1 190422Z 01016G21KT M00/M02 A3003 RMK A01 T10011019  RH  088%=      5-min Rain = 0
KFR1 190423Z 02015G22KT M00/M02 A3002 RMK A01 T10011019  RH  087%=      5-min Rain = 0
KFR1 190424Z 03017G23KT M00/M02 A3002 RMK A01 T10011019  RH  087%=      5-min Rain = 0
KFR1 190425Z 03015G22KT M00/M02 A3002 RMK A01 T10011020  RH  087%=      5-min Rain = 0
KFR1 190426Z 01017KT 00/02 A3002 RMK A01 T00-00-19  RH  087%=      5-min Rain = 0
KFR1 190427Z 02013G20KT 00/02 A3003 RMK A01 T00-00-20  RH  087%=      5-min Rain = 0
KFR1 190428Z 02014G19KT 00/02 A3002 RMK A01 T00000-19  RH  087%=      5-min Rain = 0
KFR1 190429Z 02017KT 00/02 A3003 RMK A01 T00-00-19  RH  087%=      5-min Rain = 0
KFR1 190430Z 03016G21KT 00/02 A3003 RMK A01 T00000-19  RH  087%=      5-min Rain = 0
KFR1 190431Z 02015G21KT 00/02 A3003 RMK A01 T00-00-19  RH  087%=      5-min Rain = 0
KFR1 190432Z 03019KT 00/02 A3002 RMK A01 T00-00-20  RH  087%=      5-min Rain = 0
KFR1 190433Z 02015G21KT 00/02 A3003 RMK A01 T00000-19  RH  087%=      5-min Rain = 0
KFR1 190434Z 02015G22KT 00/02 A3003 RMK A01 T00000-19  RH  087%=      5-min Rain = 0
KFR1 190435Z 02016G22KT 00/02 A3003 RMK A01 T00000-19  RH  087%=      5-min Rain = 0
KFR1 190436Z 02014G20KT 00/02 A3003 RMK A01 T00000-19  RH  087%=      5-min Rain = 0
KFR1 190437Z 02014G21KT 00/02 A3003 RMK A01 T00000-18  RH  087%=      5-min Rain = 0
KFR1 190438Z 02015G20KT 00/02 A3003 RMK A01 T00000-18  RH  087%=      5-min Rain = 0
KFR1 190439Z 01016KT 00/02 A3003 RMK A01 T00000-19  RH  087%=      5-min Rain = 0
KFR1 190440Z 02015KT 00/02 A3003 RMK A01 T00000-18  RH  087%=      5-min Rain = 0
KFR1 190441Z 03017G24KT 00/M02 A3003 RMK A01 T00011017  RH  088%=      5-min Rain = 0
KFR1 190442Z 02015G21KT 00/M02 A3003 RMK A01 T00011018  RH  087%=      5-min Rain = 0
KFR1 190443Z 02018G25KT 00/M02 A3003 RMK A01 T00011018  RH  087%=      5-min Rain = 0
KFR1 190444Z 03014KT 00/M02 A3003 RMK A01 T00011018  RH  087%=      5-min Rain = 0
KFR1 190445Z 02014G19KT 00/M02 A3003 RMK A01 T00011018  RH  087%=      5-min Rain = 0
KFR1 190446Z 01015KT 00/M02 A3003 RMK A01 T00011018  RH  087%=      5-min Rain = 0
KFR1 190447Z 01017G24KT 00/M02 A3003 RMK A01 T00011018  RH  087%=      5-min Rain = 0
KFR1 190448Z 01018G24KT 00/M02 A3003 RMK A01 T00011018  RH  087%=      5-min Rain = 0
KFR1 190449Z 01018G23KT 00/M02 A3004 RMK A01 T00011019  RH  087%=      5-min Rain = 0
KFR1 190450Z 01014KT 00/M02 A3004 RMK A01 T00011018  RH  087%=      5-min Rain = 0
KFR1 190451Z 01015G20KT 00/M02 A3004 RMK A01 T00021017  RH  087%=      5-min Rain = 0
KFR1 190452Z 01016G21KT 00/M02 A3004 RMK A01 T00021017  RH  087%=      5-min Rain = 0
KFR1 190453Z 01013G20KT 00/M02 A3004 RMK A01 T00021017  RH  087%=      5-min Rain = 0
KFR1 190454Z 01015G21KT 00/M02 A3004 RMK A01 T00021017  RH  087%=      5-min Rain = 0
KFR1 190455Z 01015G20KT 00/M02 A3004 RMK A01 T00021017  RH  087%=      5-min Rain = 0
KFR1 190456Z 02014G19KT 00/M02 A3004 RMK A01 T00021017  RH  087%=      5-min Rain = 0
KFR1 190457Z 00015G21KT 00/M02 A3004 RMK A01 T00021016  RH  087%=      5-min Rain = 0
KFR1 190458Z 02015G22KT 00/M02 A3004 RMK A01 T00031016  RH  087%=      5-min Rain = 0
KFR1 190459Z 01015KT 00/M02 A3004 RMK A01 T00031017  RH  087%=      5-min Rain = 0
KFR1 190500Z 01014G20KT 00/M02 A3004 RMK A01 T00031017  RH  087%=      5-min Rain = 0
KFR1 190501Z 01017G23KT 00/M02 A3004 RMK A01 T00031017  RH  087%=      5-min Rain = 0
KFR1 190502Z 01018G23KT 00/M02 A3004 RMK A01 T00031018  RH  086%=      5-min Rain = 0
KFR1 190503Z 00017G22KT 00/M02 A3004 RMK A01 T00041017  RH  086%=      5-min Rain = 0
KFR1 190504Z 01019G24KT 01/M02 A3004 RMK A01 T00051016  RH  086%=      5-min Rain = 0
KFR1 190505Z 00021G26KT 01/M02 A3005 RMK A01 T00061017  RH  085%=      5-min Rain = 0
KFR1 190506Z 36024G29KT 01/M02 A3005 RMK A01 T00061017  RH  084%=      5-min Rain = 0
KFR1 190507Z 36021KT 01/M02 A3005 RMK A01 T00071019  RH  083%=      5-min Rain = 0
KFR1 190508Z 36023G29KT 01/M02 A3005 RMK A01 T00061019  RH  083%=      5-min Rain = 0
KFR1 190509Z 36024G30KT 01/M02 A3005 RMK A01 T00061020  RH  083%=      5-min Rain = 0
KFR1 190510Z 36025G34KT 01/M02 A3005 RMK A01 T00061020  RH  083%=      5-min Rain = 0
KFR1 190511Z 01021G26KT 01/M02 A3005 RMK A01 T00061020  RH  083%=      5-min Rain = 0
KFR1 190512Z 01024G31KT 01/M02 A3005 RMK A01 T00061020  RH  083%=      5-min Rain = 0
KFR1 190513Z 01019G26KT 01/M02 A3005 RMK A01 T00061020  RH  083%=      5-min Rain = 0
KFR1 190514Z 02020KT 01/M02 A3005 RMK A01 T00061019  RH  083%=      5-min Rain = 0
KFR1 190515Z 01021KT 01/M02 A3005 RMK A01 T00061019  RH  083%=      5-min Rain = 0
KFR1 190516Z 02021G26KT 01/M02 A3005 RMK A01 T00061018  RH  084%=      5-min Rain = 0
KFR1 190517Z 01021KT 01/M02 A3005 RMK A01 T00061019  RH  083%=      5-min Rain = 0
KFR1 190518Z 01022G27KT 01/M02 A3005 RMK A01 T00061019  RH  083%=      5-min Rain = 0
KFR1 190519Z 01022G28KT 01/M02 A3005 RMK A01 T00061019  RH  083%=      5-min Rain = 0
KFR1 190520Z 01023KT 01/M02 A3005 RMK A01 T00061019  RH  083%=      5-min Rain = 0
KFR1 190521Z 01019G25KT 01/M02 A3005 RMK A01 T00061018  RH  084%=      5-min Rain = 0
KFR1 190522Z 02017G27KT 01/M02 A3005 RMK A01 T00061018  RH  084%=      5-min Rain = 0
KFR1 190523Z 01022KT 01/M02 A3006 RMK A01 T00061019  RH  084%=      5-min Rain = 0
KFR1 190524Z 02021KT 01/M02 A3006 RMK A01 T00051019  RH  084%=      5-min Rain = 0
KFR1 190525Z 01020KT 01/M02 A3006 RMK A01 T00051019  RH  084%=      5-min Rain = 0
KFR1 190526Z 01017G22KT 01/M02 A3006 RMK A01 T00051019  RH  084%=      5-min Rain = 0
KFR1 190527Z 01016G22KT 01/M02 A3006 RMK A01 T00051018  RH  084%=      5-min Rain = 0
KFR1 190528Z 01018KT 01/M02 A3006 RMK A01 T00051018  RH  084%=      5-min Rain = 0
KFR1 190529Z 00018G24KT 01/M02 A3006 RMK A01 T00051018  RH  084%=      5-min Rain = 0
KFR1 190530Z 01021G29KT 01/M02 A3006 RMK A01 T00061018  RH  084%=      5-min Rain = 0
KFR1 190531Z 00024G35KT 01/M02 A3006 RMK A01 T00061020  RH  083%=      5-min Rain = 0
KFR1 190532Z 01023G29KT 01/M02 A3006 RMK A01 T00061021  RH  082%=      5-min Rain = 0
KFR1 190533Z 01025G31KT 01/M02 A3006 RMK A01 T00071022  RH  081%=      5-min Rain = 0
KFR1 190534Z 01027G33KT 01/M02 A3006 RMK A01 T00061023  RH  081%=      5-min Rain = 0
KFR1 190535Z 01023G31KT 01/M02 A3006 RMK A01 T00061024  RH  081%=      5-min Rain = 0
KFR1 190536Z 01025G35KT 01/M02 A3006 RMK A01 T00051023  RH  081%=      5-min Rain = 0
KFR1 190537Z 01025G32KT 01/M02 A3006 RMK A01 T00051023  RH  081%=      5-min Rain = 0
KFR1 190538Z 01022G28KT 01/M02 A3006 RMK A01 T00051023  RH  081%=      5-min Rain = 0
KFR1 190539Z 01023KT 01/M02 A3006 RMK A01 T00051023  RH  081%=      5-min Rain = 0
KFR1 190540Z 01017G24KT 01/M02 A3007 RMK A01 T00051022  RH  082%=      5-min Rain = 0
KFR1 190541Z 01021KT 01/M02 A3007 RMK A01 T00051022  RH  083%=      5-min Rain = 0
KFR1 190542Z 01022KT 01/M02 A3007 RMK A01 T00051022  RH  082%=      5-min Rain = 0
KFR1 190543Z 00023G29KT 00/M02 A3007 RMK A01 T00041024  RH  082%=      5-min Rain = 0
KFR1 190544Z 01026G33KT 00/M02 A3007 RMK A01 T00041024  RH  081%=      5-min Rain = 0
KFR1 190545Z 01024G31KT 00/M03 A3006 RMK A01 T00041025  RH  081%=      5-min Rain = 0
KFR1 190546Z 01024G34KT 00/M03 A3006 RMK A01 T00041026  RH  080%=      5-min Rain = 0
KFR1 190547Z 01021G26KT 00/M03 A3007 RMK A01 T00031027  RH  080%=      5-min Rain = 0
KFR1 190548Z 00024G36KT 00/M03 A3007 RMK A01 T00031027  RH  080%=      5-min Rain = 0
KFR1 190549Z 02026G31KT 00/M03 A3006 RMK A01 T00031028  RH  080%=      5-min Rain = 0
KFR1 190550Z 01032G39KT 00/M03 A3006 RMK A01 T00031029  RH  079%=      5-min Rain = 0
KFR1 190551Z 01028G36KT 00/M03 A3006 RMK A01 T00031031  RH  078%=      5-min Rain = 0
KFR1 190552Z 02030G36KT 00/M03 A3006 RMK A01 T00021032  RH  078%=      5-min Rain = 0
KFR1 190553Z 02023G32KT 00/M03 A3006 RMK A01 T00021032  RH  078%=      5-min Rain = 0
KFR1 190554Z 01019G28KT 00/M03 A3007 RMK A01 T00021031  RH  079%=      5-min Rain = 0
KFR1 190555Z 01022G27KT 00/M03 A3007 RMK A01 T00021030  RH  079%=      5-min Rain = 0
KFR1 190556Z 01022G29KT 00/M03 A3007 RMK A01 T00011031  RH  079%=      5-min Rain = 0
KFR1 190557Z 01020G29KT 00/M03 A3008 RMK A01 T00011030  RH  079%=      5-min Rain = 0
KFR1 190558Z 01023G29KT 00/M03 A3008 RMK A01 T00011029  RH  080%=      5-min Rain = 0
KFR1 190559Z 36017G23KT 00/M03 A3008 RMK A01 T00011029  RH  080%=      5-min Rain = 0

Page generated in 0.0332 seconds.